<?xml version="1.0" encoding="UTF-8" standalone="no" ?>
<gpx xmlns="http://www.topografix.com/GPX/1/1" xmlns:xsi="http://www.w3.org/2001/XMLSchema-instance" xsi:schemaLocation="http://www.topografix.com/GPX/1/1 http://www.topografix.com/GPX/1/1/gpx.xsd" version="1.1" creator="VisuGPX - https://www.visugpx.com">
  <metadata>
    <name>REMUZAT</name>
    <desc><![CDATA[Chasse aux cols dans le sud Drômois]]></desc>
  </metadata>
  <trk>
    <name><![CDATA[REMUZAT]]></name>
    <trkseg>
      <trkpt lat="44.41519" lon="5.35538">
        <ele>449.07</ele>
        <time>2019-05-27T04:51:28Z</time>
      </trkpt>
      <trkpt lat="44.41518" lon="5.35536">
        <ele>449.07</ele>
        <time>2019-05-27T04:51:36Z</time>
      </trkpt>
      <trkpt lat="44.41505" lon="5.35543">
        <ele>451.48</ele>
        <time>2019-05-27T05:23:28Z</time>
      </trkpt>
      <trkpt lat="44.41516" lon="5.35544">
        <ele>454.84</ele>
        <time>2019-05-27T05:23:59Z</time>
      </trkpt>
      <trkpt lat="44.41514" lon="5.35547">
        <ele>455.32</ele>
        <time>2019-05-27T05:24:29Z</time>
      </trkpt>
      <trkpt lat="44.41512" lon="5.35549">
        <ele>455.32</ele>
        <time>2019-05-27T05:24:59Z</time>
      </trkpt>
      <trkpt lat="44.41513" lon="5.3554">
        <ele>455.32</ele>
        <time>2019-05-27T05:25:29Z</time>
      </trkpt>
      <trkpt lat="44.41511" lon="5.3554">
        <ele>455.32</ele>
        <time>2019-05-27T05:25:59Z</time>
      </trkpt>
      <trkpt lat="44.41518" lon="5.3554">
        <ele>455.32</ele>
        <time>2019-05-27T05:26:29Z</time>
      </trkpt>
      <trkpt lat="44.41519" lon="5.35544">
        <ele>455.32</ele>
        <time>2019-05-27T05:26:59Z</time>
      </trkpt>
      <trkpt lat="44.41517" lon="5.35545">
        <ele>455.32</ele>
        <time>2019-05-27T05:27:29Z</time>
      </trkpt>
      <trkpt lat="44.41514" lon="5.35545">
        <ele>455.32</ele>
        <time>2019-05-27T05:27:59Z</time>
      </trkpt>
      <trkpt lat="44.41479" lon="5.35548">
        <ele>455.32</ele>
        <time>2019-05-27T05:28:29Z</time>
      </trkpt>
      <trkpt lat="44.41457" lon="5.35601">
        <ele>455.32</ele>
        <time>2019-05-27T05:28:59Z</time>
      </trkpt>
      <trkpt lat="44.41563" lon="5.35658">
        <ele>456.28</ele>
        <time>2019-05-27T05:29:29Z</time>
      </trkpt>
      <trkpt lat="44.41672" lon="5.35721">
        <ele>456.76</ele>
        <time>2019-05-27T05:29:59Z</time>
      </trkpt>
      <trkpt lat="44.41783" lon="5.35781">
        <ele>459.17</ele>
        <time>2019-05-27T05:30:29Z</time>
      </trkpt>
      <trkpt lat="44.41892" lon="5.35838">
        <ele>460.13</ele>
        <time>2019-05-27T05:30:59Z</time>
      </trkpt>
      <trkpt lat="44.42004" lon="5.35897">
        <ele>461.57</ele>
        <time>2019-05-27T05:31:29Z</time>
      </trkpt>
      <trkpt lat="44.42102" lon="5.35988">
        <ele>462.53</ele>
        <time>2019-05-27T05:31:59Z</time>
      </trkpt>
      <trkpt lat="44.42161" lon="5.36116">
        <ele>464.45</ele>
        <time>2019-05-27T05:32:29Z</time>
      </trkpt>
      <trkpt lat="44.42174" lon="5.36182">
        <ele>465.42</ele>
        <time>2019-05-27T05:32:59Z</time>
      </trkpt>
      <trkpt lat="44.422" lon="5.36262">
        <ele>467.82</ele>
        <time>2019-05-27T05:33:29Z</time>
      </trkpt>
      <trkpt lat="44.4227" lon="5.36326">
        <ele>471.18</ele>
        <time>2019-05-27T05:33:59Z</time>
      </trkpt>
      <trkpt lat="44.42351" lon="5.36391">
        <ele>473.59</ele>
        <time>2019-05-27T05:34:29Z</time>
      </trkpt>
      <trkpt lat="44.42435" lon="5.36455">
        <ele>474.55</ele>
        <time>2019-05-27T05:34:59Z</time>
      </trkpt>
      <trkpt lat="44.42536" lon="5.36516">
        <ele>475.03</ele>
        <time>2019-05-27T05:35:29Z</time>
      </trkpt>
      <trkpt lat="44.42643" lon="5.36535">
        <ele>477.43</ele>
        <time>2019-05-27T05:35:59Z</time>
      </trkpt>
      <trkpt lat="44.42734" lon="5.36513">
        <ele>480.32</ele>
        <time>2019-05-27T05:36:29Z</time>
      </trkpt>
      <trkpt lat="44.42821" lon="5.36521">
        <ele>483.68</ele>
        <time>2019-05-27T05:36:59Z</time>
      </trkpt>
      <trkpt lat="44.42886" lon="5.36528">
        <ele>487.53</ele>
        <time>2019-05-27T05:37:29Z</time>
      </trkpt>
      <trkpt lat="44.42974" lon="5.36553">
        <ele>490.89</ele>
        <time>2019-05-27T05:37:59Z</time>
      </trkpt>
      <trkpt lat="44.43078" lon="5.36622">
        <ele>488.97</ele>
        <time>2019-05-27T05:38:29Z</time>
      </trkpt>
      <trkpt lat="44.43222" lon="5.36726">
        <ele>484.16</ele>
        <time>2019-05-27T05:38:59Z</time>
      </trkpt>
      <trkpt lat="44.43336" lon="5.36804">
        <ele>483.68</ele>
        <time>2019-05-27T05:39:29Z</time>
      </trkpt>
      <trkpt lat="44.43447" lon="5.36839">
        <ele>483.68</ele>
        <time>2019-05-27T05:39:59Z</time>
      </trkpt>
      <trkpt lat="44.43579" lon="5.3689">
        <ele>485.6</ele>
        <time>2019-05-27T05:40:29Z</time>
      </trkpt>
      <trkpt lat="44.43689" lon="5.36914">
        <ele>488.49</ele>
        <time>2019-05-27T05:40:59Z</time>
      </trkpt>
      <trkpt lat="44.43793" lon="5.36893">
        <ele>490.89</ele>
        <time>2019-05-27T05:41:29Z</time>
      </trkpt>
      <trkpt lat="44.439" lon="5.36837">
        <ele>492.81</ele>
        <time>2019-05-27T05:41:59Z</time>
      </trkpt>
      <trkpt lat="44.4401" lon="5.36829">
        <ele>495.22</ele>
        <time>2019-05-27T05:42:29Z</time>
      </trkpt>
      <trkpt lat="44.44112" lon="5.36913">
        <ele>495.7</ele>
        <time>2019-05-27T05:42:59Z</time>
      </trkpt>
      <trkpt lat="44.44175" lon="5.36987">
        <ele>497.62</ele>
        <time>2019-05-27T05:43:29Z</time>
      </trkpt>
      <trkpt lat="44.44164" lon="5.37066">
        <ele>501.46</ele>
        <time>2019-05-27T05:43:59Z</time>
      </trkpt>
      <trkpt lat="44.44167" lon="5.37141">
        <ele>505.79</ele>
        <time>2019-05-27T05:44:29Z</time>
      </trkpt>
      <trkpt lat="44.44167" lon="5.37214">
        <ele>509.16</ele>
        <time>2019-05-27T05:44:59Z</time>
      </trkpt>
      <trkpt lat="44.44172" lon="5.37288">
        <ele>513</ele>
        <time>2019-05-27T05:45:29Z</time>
      </trkpt>
      <trkpt lat="44.44183" lon="5.3737">
        <ele>515.4</ele>
        <time>2019-05-27T05:45:59Z</time>
      </trkpt>
      <trkpt lat="44.44186" lon="5.37474">
        <ele>518.29</ele>
        <time>2019-05-27T05:46:29Z</time>
      </trkpt>
      <trkpt lat="44.44202" lon="5.37581">
        <ele>520.21</ele>
        <time>2019-05-27T05:46:59Z</time>
      </trkpt>
      <trkpt lat="44.44228" lon="5.3772">
        <ele>520.69</ele>
        <time>2019-05-27T05:47:29Z</time>
      </trkpt>
      <trkpt lat="44.4425" lon="5.37848">
        <ele>523.58</ele>
        <time>2019-05-27T05:47:59Z</time>
      </trkpt>
      <trkpt lat="44.44297" lon="5.37961">
        <ele>525.98</ele>
        <time>2019-05-27T05:48:29Z</time>
      </trkpt>
      <trkpt lat="44.44335" lon="5.38063">
        <ele>528.38</ele>
        <time>2019-05-27T05:48:59Z</time>
      </trkpt>
      <trkpt lat="44.44273" lon="5.38146">
        <ele>530.79</ele>
        <time>2019-05-27T05:49:29Z</time>
      </trkpt>
      <trkpt lat="44.44218" lon="5.38198">
        <ele>534.63</ele>
        <time>2019-05-27T05:49:59Z</time>
      </trkpt>
      <trkpt lat="44.4417" lon="5.38247">
        <ele>537.51</ele>
        <time>2019-05-27T05:50:29Z</time>
      </trkpt>
      <trkpt lat="44.44139" lon="5.38305">
        <ele>542.32</ele>
        <time>2019-05-27T05:50:59Z</time>
      </trkpt>
      <trkpt lat="44.44141" lon="5.3837">
        <ele>546.17</ele>
        <time>2019-05-27T05:51:29Z</time>
      </trkpt>
      <trkpt lat="44.44167" lon="5.38425">
        <ele>549.53</ele>
        <time>2019-05-27T05:51:59Z</time>
      </trkpt>
      <trkpt lat="44.442" lon="5.38474">
        <ele>552.41</ele>
        <time>2019-05-27T05:52:29Z</time>
      </trkpt>
      <trkpt lat="44.44224" lon="5.38527">
        <ele>556.26</ele>
        <time>2019-05-27T05:52:59Z</time>
      </trkpt>
      <trkpt lat="44.44228" lon="5.38599">
        <ele>559.62</ele>
        <time>2019-05-27T05:53:29Z</time>
      </trkpt>
      <trkpt lat="44.44212" lon="5.38679">
        <ele>562.51</ele>
        <time>2019-05-27T05:53:59Z</time>
      </trkpt>
      <trkpt lat="44.44228" lon="5.38753">
        <ele>566.35</ele>
        <time>2019-05-27T05:54:29Z</time>
      </trkpt>
      <trkpt lat="44.44254" lon="5.38819">
        <ele>569.24</ele>
        <time>2019-05-27T05:54:59Z</time>
      </trkpt>
      <trkpt lat="44.44259" lon="5.38889">
        <ele>573.56</ele>
        <time>2019-05-27T05:55:29Z</time>
      </trkpt>
      <trkpt lat="44.44243" lon="5.38959">
        <ele>577.41</ele>
        <time>2019-05-27T05:55:59Z</time>
      </trkpt>
      <trkpt lat="44.44236" lon="5.39044">
        <ele>580.29</ele>
        <time>2019-05-27T05:56:29Z</time>
      </trkpt>
      <trkpt lat="44.44271" lon="5.39137">
        <ele>582.22</ele>
        <time>2019-05-27T05:56:59Z</time>
      </trkpt>
      <trkpt lat="44.44291" lon="5.39227">
        <ele>584.62</ele>
        <time>2019-05-27T05:57:29Z</time>
      </trkpt>
      <trkpt lat="44.44324" lon="5.39303">
        <ele>587.02</ele>
        <time>2019-05-27T05:57:59Z</time>
      </trkpt>
      <trkpt lat="44.44372" lon="5.39379">
        <ele>590.39</ele>
        <time>2019-05-27T05:58:29Z</time>
      </trkpt>
      <trkpt lat="44.44366" lon="5.3949">
        <ele>592.31</ele>
        <time>2019-05-27T05:58:59Z</time>
      </trkpt>
      <trkpt lat="44.44338" lon="5.39538">
        <ele>596.15</ele>
        <time>2019-05-27T05:59:29Z</time>
      </trkpt>
      <trkpt lat="44.44305" lon="5.39583">
        <ele>599.04</ele>
        <time>2019-05-27T05:59:59Z</time>
      </trkpt>
      <trkpt lat="44.44324" lon="5.39642">
        <ele>602.88</ele>
        <time>2019-05-27T06:00:29Z</time>
      </trkpt>
      <trkpt lat="44.4435" lon="5.39695">
        <ele>607.21</ele>
        <time>2019-05-27T06:00:59Z</time>
      </trkpt>
      <trkpt lat="44.44347" lon="5.39757">
        <ele>612.02</ele>
        <time>2019-05-27T06:01:29Z</time>
      </trkpt>
      <trkpt lat="44.44335" lon="5.39817">
        <ele>615.86</ele>
        <time>2019-05-27T06:01:59Z</time>
      </trkpt>
      <trkpt lat="44.44308" lon="5.3987">
        <ele>619.71</ele>
        <time>2019-05-27T06:02:29Z</time>
      </trkpt>
      <trkpt lat="44.44343" lon="5.39876">
        <ele>624.03</ele>
        <time>2019-05-27T06:02:59Z</time>
      </trkpt>
      <trkpt lat="44.4437" lon="5.39823">
        <ele>627.4</ele>
        <time>2019-05-27T06:03:29Z</time>
      </trkpt>
      <trkpt lat="44.44402" lon="5.39775">
        <ele>631.24</ele>
        <time>2019-05-27T06:03:59Z</time>
      </trkpt>
      <trkpt lat="44.44447" lon="5.39756">
        <ele>635.57</ele>
        <time>2019-05-27T06:04:29Z</time>
      </trkpt>
      <trkpt lat="44.44489" lon="5.39734">
        <ele>638.93</ele>
        <time>2019-05-27T06:04:59Z</time>
      </trkpt>
      <trkpt lat="44.44531" lon="5.39698">
        <ele>641.82</ele>
        <time>2019-05-27T06:05:29Z</time>
      </trkpt>
      <trkpt lat="44.44553" lon="5.39712">
        <ele>646.14</ele>
        <time>2019-05-27T06:05:59Z</time>
      </trkpt>
      <trkpt lat="44.44519" lon="5.39746">
        <ele>650.47</ele>
        <time>2019-05-27T06:06:29Z</time>
      </trkpt>
      <trkpt lat="44.44487" lon="5.39781">
        <ele>653.83</ele>
        <time>2019-05-27T06:06:59Z</time>
      </trkpt>
      <trkpt lat="44.44453" lon="5.3981">
        <ele>657.2</ele>
        <time>2019-05-27T06:07:29Z</time>
      </trkpt>
      <trkpt lat="44.44443" lon="5.39865">
        <ele>660.56</ele>
        <time>2019-05-27T06:07:59Z</time>
      </trkpt>
      <trkpt lat="44.44457" lon="5.39918">
        <ele>664.41</ele>
        <time>2019-05-27T06:08:29Z</time>
      </trkpt>
      <trkpt lat="44.44476" lon="5.39965">
        <ele>668.25</ele>
        <time>2019-05-27T06:08:59Z</time>
      </trkpt>
      <trkpt lat="44.44479" lon="5.40019">
        <ele>671.62</ele>
        <time>2019-05-27T06:09:29Z</time>
      </trkpt>
      <trkpt lat="44.44486" lon="5.40032">
        <ele>675.46</ele>
        <time>2019-05-27T06:09:59Z</time>
      </trkpt>
      <trkpt lat="44.4451" lon="5.39986">
        <ele>679.31</ele>
        <time>2019-05-27T06:10:29Z</time>
      </trkpt>
      <trkpt lat="44.44541" lon="5.39951">
        <ele>683.15</ele>
        <time>2019-05-27T06:10:59Z</time>
      </trkpt>
      <trkpt lat="44.44566" lon="5.399">
        <ele>686.52</ele>
        <time>2019-05-27T06:11:29Z</time>
      </trkpt>
      <trkpt lat="44.44596" lon="5.39871">
        <ele>690.36</ele>
        <time>2019-05-27T06:11:59Z</time>
      </trkpt>
      <trkpt lat="44.44637" lon="5.3989">
        <ele>693.73</ele>
        <time>2019-05-27T06:12:29Z</time>
      </trkpt>
      <trkpt lat="44.44627" lon="5.39929">
        <ele>697.09</ele>
        <time>2019-05-27T06:12:59Z</time>
      </trkpt>
      <trkpt lat="44.446" lon="5.39984">
        <ele>700.94</ele>
        <time>2019-05-27T06:13:29Z</time>
      </trkpt>
      <trkpt lat="44.44573" lon="5.40066">
        <ele>702.86</ele>
        <time>2019-05-27T06:13:59Z</time>
      </trkpt>
      <trkpt lat="44.44597" lon="5.4012">
        <ele>706.71</ele>
        <time>2019-05-27T06:14:29Z</time>
      </trkpt>
      <trkpt lat="44.4463" lon="5.40166">
        <ele>710.55</ele>
        <time>2019-05-27T06:14:59Z</time>
      </trkpt>
      <trkpt lat="44.4465" lon="5.40222">
        <ele>714.88</ele>
        <time>2019-05-27T06:15:29Z</time>
      </trkpt>
      <trkpt lat="44.44655" lon="5.40286">
        <ele>718.72</ele>
        <time>2019-05-27T06:15:59Z</time>
      </trkpt>
      <trkpt lat="44.44636" lon="5.40344">
        <ele>722.09</ele>
        <time>2019-05-27T06:16:29Z</time>
      </trkpt>
      <trkpt lat="44.44605" lon="5.40393">
        <ele>726.41</ele>
        <time>2019-05-27T06:16:59Z</time>
      </trkpt>
      <trkpt lat="44.44594" lon="5.40453">
        <ele>730.26</ele>
        <time>2019-05-27T06:17:29Z</time>
      </trkpt>
      <trkpt lat="44.44569" lon="5.40506">
        <ele>734.58</ele>
        <time>2019-05-27T06:17:59Z</time>
      </trkpt>
      <trkpt lat="44.44542" lon="5.40556">
        <ele>738.91</ele>
        <time>2019-05-27T06:18:29Z</time>
      </trkpt>
      <trkpt lat="44.44567" lon="5.4054">
        <ele>742.28</ele>
        <time>2019-05-27T06:18:59Z</time>
      </trkpt>
      <trkpt lat="44.44608" lon="5.40521">
        <ele>745.64</ele>
        <time>2019-05-27T06:19:29Z</time>
      </trkpt>
      <trkpt lat="44.44651" lon="5.405">
        <ele>749.49</ele>
        <time>2019-05-27T06:19:59Z</time>
      </trkpt>
      <trkpt lat="44.44691" lon="5.40457">
        <ele>752.85</ele>
        <time>2019-05-27T06:20:29Z</time>
      </trkpt>
      <trkpt lat="44.44725" lon="5.40416">
        <ele>756.21</ele>
        <time>2019-05-27T06:20:59Z</time>
      </trkpt>
      <trkpt lat="44.4475" lon="5.40349">
        <ele>759.58</ele>
        <time>2019-05-27T06:21:29Z</time>
      </trkpt>
      <trkpt lat="44.44795" lon="5.40267">
        <ele>761.5</ele>
        <time>2019-05-27T06:21:59Z</time>
      </trkpt>
      <trkpt lat="44.44822" lon="5.40271">
        <ele>764.39</ele>
        <time>2019-05-27T06:22:29Z</time>
      </trkpt>
      <trkpt lat="44.44823" lon="5.40272">
        <ele>764.87</ele>
        <time>2019-05-27T06:22:59Z</time>
      </trkpt>
      <trkpt lat="44.44825" lon="5.40275">
        <ele>764.87</ele>
        <time>2019-05-27T06:23:29Z</time>
      </trkpt>
      <trkpt lat="44.44822" lon="5.40276">
        <ele>765.83</ele>
        <time>2019-05-27T06:23:59Z</time>
      </trkpt>
      <trkpt lat="44.44815" lon="5.40329">
        <ele>768.71</ele>
        <time>2019-05-27T06:24:29Z</time>
      </trkpt>
      <trkpt lat="44.44804" lon="5.40397">
        <ele>772.08</ele>
        <time>2019-05-27T06:24:59Z</time>
      </trkpt>
      <trkpt lat="44.44799" lon="5.40466">
        <ele>775.92</ele>
        <time>2019-05-27T06:25:29Z</time>
      </trkpt>
      <trkpt lat="44.44786" lon="5.40516">
        <ele>779.77</ele>
        <time>2019-05-27T06:25:59Z</time>
      </trkpt>
      <trkpt lat="44.44772" lon="5.40561">
        <ele>784.09</ele>
        <time>2019-05-27T06:26:29Z</time>
      </trkpt>
      <trkpt lat="44.44771" lon="5.40612">
        <ele>787.46</ele>
        <time>2019-05-27T06:26:59Z</time>
      </trkpt>
      <trkpt lat="44.44752" lon="5.40668">
        <ele>789.86</ele>
        <time>2019-05-27T06:27:29Z</time>
      </trkpt>
      <trkpt lat="44.4471" lon="5.40713">
        <ele>793.22</ele>
        <time>2019-05-27T06:27:59Z</time>
      </trkpt>
      <trkpt lat="44.44665" lon="5.40766">
        <ele>794.67</ele>
        <time>2019-05-27T06:28:29Z</time>
      </trkpt>
      <trkpt lat="44.44711" lon="5.40838">
        <ele>797.07</ele>
        <time>2019-05-27T06:28:59Z</time>
      </trkpt>
      <trkpt lat="44.44771" lon="5.40865">
        <ele>800.44</ele>
        <time>2019-05-27T06:29:29Z</time>
      </trkpt>
      <trkpt lat="44.44817" lon="5.40956">
        <ele>802.84</ele>
        <time>2019-05-27T06:29:59Z</time>
      </trkpt>
      <trkpt lat="44.44892" lon="5.41047">
        <ele>803.32</ele>
        <time>2019-05-27T06:30:29Z</time>
      </trkpt>
      <trkpt lat="44.44897" lon="5.41155">
        <ele>806.2</ele>
        <time>2019-05-27T06:30:59Z</time>
      </trkpt>
      <trkpt lat="44.44907" lon="5.41246">
        <ele>809.09</ele>
        <time>2019-05-27T06:31:29Z</time>
      </trkpt>
      <trkpt lat="44.44925" lon="5.41348">
        <ele>810.53</ele>
        <time>2019-05-27T06:31:59Z</time>
      </trkpt>
      <trkpt lat="44.44976" lon="5.41452">
        <ele>810.53</ele>
        <time>2019-05-27T06:32:29Z</time>
      </trkpt>
      <trkpt lat="44.44985" lon="5.41553">
        <ele>812.93</ele>
        <time>2019-05-27T06:32:59Z</time>
      </trkpt>
      <trkpt lat="44.44964" lon="5.41638">
        <ele>814.85</ele>
        <time>2019-05-27T06:33:29Z</time>
      </trkpt>
      <trkpt lat="44.44956" lon="5.41673">
        <ele>817.74</ele>
        <time>2019-05-27T06:33:59Z</time>
      </trkpt>
      <trkpt lat="44.4495" lon="5.41707">
        <ele>820.62</ele>
        <time>2019-05-27T06:34:29Z</time>
      </trkpt>
      <trkpt lat="44.4494" lon="5.41755">
        <ele>824.95</ele>
        <time>2019-05-27T06:34:59Z</time>
      </trkpt>
      <trkpt lat="44.44928" lon="5.41798">
        <ele>829.27</ele>
        <time>2019-05-27T06:35:29Z</time>
      </trkpt>
      <trkpt lat="44.44911" lon="5.4184">
        <ele>833.6</ele>
        <time>2019-05-27T06:35:59Z</time>
      </trkpt>
      <trkpt lat="44.44913" lon="5.41886">
        <ele>837.45</ele>
        <time>2019-05-27T06:36:29Z</time>
      </trkpt>
      <trkpt lat="44.44928" lon="5.41926">
        <ele>842.73</ele>
        <time>2019-05-27T06:36:59Z</time>
      </trkpt>
      <trkpt lat="44.44912" lon="5.41967">
        <ele>846.58</ele>
        <time>2019-05-27T06:37:29Z</time>
      </trkpt>
      <trkpt lat="44.44885" lon="5.41995">
        <ele>850.42</ele>
        <time>2019-05-27T06:37:59Z</time>
      </trkpt>
      <trkpt lat="44.4486" lon="5.42026">
        <ele>855.23</ele>
        <time>2019-05-27T06:38:29Z</time>
      </trkpt>
      <trkpt lat="44.44836" lon="5.42061">
        <ele>859.08</ele>
        <time>2019-05-27T06:38:59Z</time>
      </trkpt>
      <trkpt lat="44.44811" lon="5.42096">
        <ele>862.44</ele>
        <time>2019-05-27T06:39:29Z</time>
      </trkpt>
      <trkpt lat="44.44744" lon="5.42169">
        <ele>862.44</ele>
        <time>2019-05-27T06:39:59Z</time>
      </trkpt>
      <trkpt lat="44.44723" lon="5.42235">
        <ele>865.8</ele>
        <time>2019-05-27T06:40:29Z</time>
      </trkpt>
      <trkpt lat="44.44707" lon="5.42285">
        <ele>869.65</ele>
        <time>2019-05-27T06:40:59Z</time>
      </trkpt>
      <trkpt lat="44.44691" lon="5.4233">
        <ele>873.5</ele>
        <time>2019-05-27T06:41:29Z</time>
      </trkpt>
      <trkpt lat="44.44657" lon="5.4234">
        <ele>877.82</ele>
        <time>2019-05-27T06:41:59Z</time>
      </trkpt>
      <trkpt lat="44.44642" lon="5.42389">
        <ele>881.19</ele>
        <time>2019-05-27T06:42:29Z</time>
      </trkpt>
      <trkpt lat="44.44627" lon="5.4243">
        <ele>885.51</ele>
        <time>2019-05-27T06:42:59Z</time>
      </trkpt>
      <trkpt lat="44.44609" lon="5.42465">
        <ele>890.32</ele>
        <time>2019-05-27T06:43:29Z</time>
      </trkpt>
      <trkpt lat="44.44607" lon="5.42468">
        <ele>891.28</ele>
        <time>2019-05-27T06:43:59Z</time>
      </trkpt>
      <trkpt lat="44.44599" lon="5.42477">
        <ele>893.2</ele>
        <time>2019-05-27T06:44:29Z</time>
      </trkpt>
      <trkpt lat="44.44582" lon="5.42511">
        <ele>897.53</ele>
        <time>2019-05-27T06:44:59Z</time>
      </trkpt>
      <trkpt lat="44.44564" lon="5.42538">
        <ele>901.37</ele>
        <time>2019-05-27T06:45:29Z</time>
      </trkpt>
      <trkpt lat="44.44547" lon="5.42563">
        <ele>905.7</ele>
        <time>2019-05-27T06:45:59Z</time>
      </trkpt>
      <trkpt lat="44.44537" lon="5.42589">
        <ele>909.06</ele>
        <time>2019-05-27T06:46:29Z</time>
      </trkpt>
      <trkpt lat="44.4452" lon="5.42618">
        <ele>913.39</ele>
        <time>2019-05-27T06:46:59Z</time>
      </trkpt>
      <trkpt lat="44.44509" lon="5.42645">
        <ele>915.79</ele>
        <time>2019-05-27T06:47:29Z</time>
      </trkpt>
      <trkpt lat="44.44472" lon="5.42697">
        <ele>918.68</ele>
        <time>2019-05-27T06:47:59Z</time>
      </trkpt>
      <trkpt lat="44.44431" lon="5.42776">
        <ele>921.56</ele>
        <time>2019-05-27T06:48:29Z</time>
      </trkpt>
      <trkpt lat="44.4439" lon="5.42845">
        <ele>923.48</ele>
        <time>2019-05-27T06:48:59Z</time>
      </trkpt>
      <trkpt lat="44.44326" lon="5.42951">
        <ele>922.04</ele>
        <time>2019-05-27T06:49:29Z</time>
      </trkpt>
      <trkpt lat="44.44264" lon="5.42985">
        <ele>925.89</ele>
        <time>2019-05-27T06:49:59Z</time>
      </trkpt>
      <trkpt lat="44.4422" lon="5.42991">
        <ele>929.73</ele>
        <time>2019-05-27T06:50:29Z</time>
      </trkpt>
      <trkpt lat="44.44201" lon="5.43003">
        <ele>934.06</ele>
        <time>2019-05-27T06:50:59Z</time>
      </trkpt>
      <trkpt lat="44.44222" lon="5.43034">
        <ele>938.86</ele>
        <time>2019-05-27T06:51:29Z</time>
      </trkpt>
      <trkpt lat="44.44239" lon="5.43073">
        <ele>942.23</ele>
        <time>2019-05-27T06:51:59Z</time>
      </trkpt>
      <trkpt lat="44.44246" lon="5.43116">
        <ele>946.56</ele>
        <time>2019-05-27T06:52:29Z</time>
      </trkpt>
      <trkpt lat="44.44258" lon="5.4316">
        <ele>950.4</ele>
        <time>2019-05-27T06:52:59Z</time>
      </trkpt>
      <trkpt lat="44.44254" lon="5.43204">
        <ele>954.25</ele>
        <time>2019-05-27T06:53:29Z</time>
      </trkpt>
      <trkpt lat="44.44256" lon="5.43249">
        <ele>958.57</ele>
        <time>2019-05-27T06:53:59Z</time>
      </trkpt>
      <trkpt lat="44.44256" lon="5.43293">
        <ele>962.9</ele>
        <time>2019-05-27T06:54:29Z</time>
      </trkpt>
      <trkpt lat="44.44276" lon="5.43328">
        <ele>966.74</ele>
        <time>2019-05-27T06:54:59Z</time>
      </trkpt>
      <trkpt lat="44.44277" lon="5.43374">
        <ele>970.59</ele>
        <time>2019-05-27T06:55:29Z</time>
      </trkpt>
      <trkpt lat="44.44287" lon="5.43416">
        <ele>974.91</ele>
        <time>2019-05-27T06:55:59Z</time>
      </trkpt>
      <trkpt lat="44.44294" lon="5.4346">
        <ele>979.72</ele>
        <time>2019-05-27T06:56:29Z</time>
      </trkpt>
      <trkpt lat="44.44291" lon="5.43504">
        <ele>983.57</ele>
        <time>2019-05-27T06:56:59Z</time>
      </trkpt>
      <trkpt lat="44.44291" lon="5.43549">
        <ele>987.41</ele>
        <time>2019-05-27T06:57:29Z</time>
      </trkpt>
      <trkpt lat="44.443" lon="5.43588">
        <ele>991.74</ele>
        <time>2019-05-27T06:57:59Z</time>
      </trkpt>
      <trkpt lat="44.44326" lon="5.43613">
        <ele>995.1</ele>
        <time>2019-05-27T06:58:29Z</time>
      </trkpt>
      <trkpt lat="44.44314" lon="5.43657">
        <ele>999.43</ele>
        <time>2019-05-27T06:58:59Z</time>
      </trkpt>
      <trkpt lat="44.44303" lon="5.43696">
        <ele>1002.79</ele>
        <time>2019-05-27T06:59:29Z</time>
      </trkpt>
      <trkpt lat="44.44337" lon="5.43684">
        <ele>1006.16</ele>
        <time>2019-05-27T06:59:59Z</time>
      </trkpt>
      <trkpt lat="44.44366" lon="5.43654">
        <ele>1009.04</ele>
        <time>2019-05-27T07:00:29Z</time>
      </trkpt>
      <trkpt lat="44.44395" lon="5.43624">
        <ele>1012.89</ele>
        <time>2019-05-27T07:00:59Z</time>
      </trkpt>
      <trkpt lat="44.44434" lon="5.43599">
        <ele>1015.77</ele>
        <time>2019-05-27T07:01:29Z</time>
      </trkpt>
      <trkpt lat="44.44474" lon="5.43566">
        <ele>1018.65</ele>
        <time>2019-05-27T07:01:59Z</time>
      </trkpt>
      <trkpt lat="44.44516" lon="5.43526">
        <ele>1021.06</ele>
        <time>2019-05-27T07:02:29Z</time>
      </trkpt>
      <trkpt lat="44.44502" lon="5.43558">
        <ele>1025.38</ele>
        <time>2019-05-27T07:02:59Z</time>
      </trkpt>
      <trkpt lat="44.44482" lon="5.43595">
        <ele>1029.71</ele>
        <time>2019-05-27T07:03:29Z</time>
      </trkpt>
      <trkpt lat="44.44478" lon="5.43614">
        <ele>1031.63</ele>
        <time>2019-05-27T07:03:59Z</time>
      </trkpt>
      <trkpt lat="44.4448" lon="5.43611">
        <ele>1031.63</ele>
        <time>2019-05-27T07:04:29Z</time>
      </trkpt>
      <trkpt lat="44.44461" lon="5.43635">
        <ele>1034.52</ele>
        <time>2019-05-27T07:04:59Z</time>
      </trkpt>
      <trkpt lat="44.44434" lon="5.43659">
        <ele>1039.8</ele>
        <time>2019-05-27T07:05:29Z</time>
      </trkpt>
      <trkpt lat="44.44409" lon="5.43683">
        <ele>1043.65</ele>
        <time>2019-05-27T07:05:59Z</time>
      </trkpt>
      <trkpt lat="44.44393" lon="5.43715">
        <ele>1046.53</ele>
        <time>2019-05-27T07:06:29Z</time>
      </trkpt>
      <trkpt lat="44.44376" lon="5.43753">
        <ele>1049.9</ele>
        <time>2019-05-27T07:06:59Z</time>
      </trkpt>
      <trkpt lat="44.44366" lon="5.438">
        <ele>1054.22</ele>
        <time>2019-05-27T07:07:29Z</time>
      </trkpt>
      <trkpt lat="44.44344" lon="5.43847">
        <ele>1056.15</ele>
        <time>2019-05-27T07:07:59Z</time>
      </trkpt>
      <trkpt lat="44.44333" lon="5.439">
        <ele>1059.99</ele>
        <time>2019-05-27T07:08:29Z</time>
      </trkpt>
      <trkpt lat="44.44321" lon="5.43952">
        <ele>1063.84</ele>
        <time>2019-05-27T07:08:59Z</time>
      </trkpt>
      <trkpt lat="44.44305" lon="5.44003">
        <ele>1066.72</ele>
        <time>2019-05-27T07:09:29Z</time>
      </trkpt>
      <trkpt lat="44.44285" lon="5.44052">
        <ele>1071.05</ele>
        <time>2019-05-27T07:09:59Z</time>
      </trkpt>
      <trkpt lat="44.44261" lon="5.44099">
        <ele>1074.41</ele>
        <time>2019-05-27T07:10:29Z</time>
      </trkpt>
      <trkpt lat="44.44221" lon="5.4413">
        <ele>1076.81</ele>
        <time>2019-05-27T07:10:59Z</time>
      </trkpt>
      <trkpt lat="44.4417" lon="5.44158">
        <ele>1078.26</ele>
        <time>2019-05-27T07:11:29Z</time>
      </trkpt>
      <trkpt lat="44.44145" lon="5.44186">
        <ele>1078.74</ele>
        <time>2019-05-27T07:11:59Z</time>
      </trkpt>
      <trkpt lat="44.44116" lon="5.44202">
        <ele>1078.74</ele>
        <time>2019-05-27T07:12:29Z</time>
      </trkpt>
      <trkpt lat="44.44124" lon="5.44182">
        <ele>1082.58</ele>
        <time>2019-05-27T07:12:59Z</time>
      </trkpt>
      <trkpt lat="44.44119" lon="5.44183">
        <ele>1082.58</ele>
        <time>2019-05-27T07:13:29Z</time>
      </trkpt>
      <trkpt lat="44.44126" lon="5.44164">
        <ele>1084.99</ele>
        <time>2019-05-27T07:13:59Z</time>
      </trkpt>
      <trkpt lat="44.4413" lon="5.44135">
        <ele>1087.87</ele>
        <time>2019-05-27T07:14:29Z</time>
      </trkpt>
      <trkpt lat="44.44132" lon="5.4411">
        <ele>1091.23</ele>
        <time>2019-05-27T07:14:59Z</time>
      </trkpt>
      <trkpt lat="44.44135" lon="5.44085">
        <ele>1096.04</ele>
        <time>2019-05-27T07:15:29Z</time>
      </trkpt>
      <trkpt lat="44.44138" lon="5.44054">
        <ele>1101.33</ele>
        <time>2019-05-27T07:15:59Z</time>
      </trkpt>
      <trkpt lat="44.44146" lon="5.44029">
        <ele>1106.13</ele>
        <time>2019-05-27T07:16:29Z</time>
      </trkpt>
      <trkpt lat="44.44156" lon="5.44009">
        <ele>1109.98</ele>
        <time>2019-05-27T07:16:59Z</time>
      </trkpt>
      <trkpt lat="44.4416" lon="5.43989">
        <ele>1113.34</ele>
        <time>2019-05-27T07:17:29Z</time>
      </trkpt>
      <trkpt lat="44.44144" lon="5.43977">
        <ele>1117.67</ele>
        <time>2019-05-27T07:17:59Z</time>
      </trkpt>
      <trkpt lat="44.44118" lon="5.43965">
        <ele>1120.55</ele>
        <time>2019-05-27T07:18:29Z</time>
      </trkpt>
      <trkpt lat="44.44108" lon="5.4396">
        <ele>1120.55</ele>
        <time>2019-05-27T07:18:59Z</time>
      </trkpt>
      <trkpt lat="44.44136" lon="5.43974">
        <ele>1119.59</ele>
        <time>2019-05-27T07:19:29Z</time>
      </trkpt>
      <trkpt lat="44.44145" lon="5.44027">
        <ele>1106.61</ele>
        <time>2019-05-27T07:19:59Z</time>
      </trkpt>
      <trkpt lat="44.44133" lon="5.44115">
        <ele>1092.2</ele>
        <time>2019-05-27T07:20:29Z</time>
      </trkpt>
      <trkpt lat="44.44126" lon="5.44176">
        <ele>1083.54</ele>
        <time>2019-05-27T07:20:59Z</time>
      </trkpt>
      <trkpt lat="44.44129" lon="5.44179">
        <ele>1083.54</ele>
        <time>2019-05-27T07:21:29Z</time>
      </trkpt>
      <trkpt lat="44.44117" lon="5.442">
        <ele>1081.62</ele>
        <time>2019-05-27T07:21:59Z</time>
      </trkpt>
      <trkpt lat="44.44087" lon="5.44264">
        <ele>1079.22</ele>
        <time>2019-05-27T07:22:29Z</time>
      </trkpt>
      <trkpt lat="44.44076" lon="5.44357">
        <ele>1082.1</ele>
        <time>2019-05-27T07:22:59Z</time>
      </trkpt>
      <trkpt lat="44.44007" lon="5.44538">
        <ele>1076.33</ele>
        <time>2019-05-27T07:23:29Z</time>
      </trkpt>
      <trkpt lat="44.43998" lon="5.44627">
        <ele>1080.66</ele>
        <time>2019-05-27T07:23:59Z</time>
      </trkpt>
      <trkpt lat="44.44012" lon="5.44699">
        <ele>1084.5</ele>
        <time>2019-05-27T07:24:29Z</time>
      </trkpt>
      <trkpt lat="44.44049" lon="5.44751">
        <ele>1087.39</ele>
        <time>2019-05-27T07:24:59Z</time>
      </trkpt>
      <trkpt lat="44.44062" lon="5.4485">
        <ele>1085.95</ele>
        <time>2019-05-27T07:25:29Z</time>
      </trkpt>
      <trkpt lat="44.43956" lon="5.44993">
        <ele>1081.62</ele>
        <time>2019-05-27T07:25:59Z</time>
      </trkpt>
      <trkpt lat="44.43923" lon="5.45147">
        <ele>1077.78</ele>
        <time>2019-05-27T07:26:29Z</time>
      </trkpt>
      <trkpt lat="44.4383" lon="5.45246">
        <ele>1068.16</ele>
        <time>2019-05-27T07:26:59Z</time>
      </trkpt>
      <trkpt lat="44.43799" lon="5.45376">
        <ele>1067.68</ele>
        <time>2019-05-27T07:27:29Z</time>
      </trkpt>
      <trkpt lat="44.43796" lon="5.45392">
        <ele>1067.68</ele>
        <time>2019-05-27T07:27:59Z</time>
      </trkpt>
      <trkpt lat="44.43797" lon="5.45393">
        <ele>1069.12</ele>
        <time>2019-05-27T07:28:29Z</time>
      </trkpt>
      <trkpt lat="44.43797" lon="5.45393">
        <ele>1069.12</ele>
        <time>2019-05-27T07:28:59Z</time>
      </trkpt>
      <trkpt lat="44.43723" lon="5.45499">
        <ele>1066.24</ele>
        <time>2019-05-27T07:29:29Z</time>
      </trkpt>
      <trkpt lat="44.43625" lon="5.45583">
        <ele>1066.72</ele>
        <time>2019-05-27T07:29:59Z</time>
      </trkpt>
      <trkpt lat="44.43532" lon="5.45571">
        <ele>1068.16</ele>
        <time>2019-05-27T07:30:29Z</time>
      </trkpt>
      <trkpt lat="44.43422" lon="5.45734">
        <ele>1056.15</ele>
        <time>2019-05-27T07:30:59Z</time>
      </trkpt>
      <trkpt lat="44.43332" lon="5.45846">
        <ele>1050.38</ele>
        <time>2019-05-27T07:31:29Z</time>
      </trkpt>
      <trkpt lat="44.43286" lon="5.45986">
        <ele>1043.65</ele>
        <time>2019-05-27T07:31:59Z</time>
      </trkpt>
      <trkpt lat="44.43207" lon="5.46121">
        <ele>1047.49</ele>
        <time>2019-05-27T07:32:29Z</time>
      </trkpt>
      <trkpt lat="44.43073" lon="5.46166">
        <ele>1044.13</ele>
        <time>2019-05-27T07:32:59Z</time>
      </trkpt>
      <trkpt lat="44.42989" lon="5.46205">
        <ele>1047.49</ele>
        <time>2019-05-27T07:33:29Z</time>
      </trkpt>
      <trkpt lat="44.42939" lon="5.46229">
        <ele>1053.26</ele>
        <time>2019-05-27T07:33:59Z</time>
      </trkpt>
      <trkpt lat="44.42893" lon="5.4622">
        <ele>1057.59</ele>
        <time>2019-05-27T07:34:29Z</time>
      </trkpt>
      <trkpt lat="44.4285" lon="5.46204">
        <ele>1062.39</ele>
        <time>2019-05-27T07:34:59Z</time>
      </trkpt>
      <trkpt lat="44.42811" lon="5.4619">
        <ele>1067.2</ele>
        <time>2019-05-27T07:35:29Z</time>
      </trkpt>
      <trkpt lat="44.42775" lon="5.46197">
        <ele>1071.53</ele>
        <time>2019-05-27T07:35:59Z</time>
      </trkpt>
      <trkpt lat="44.42741" lon="5.46212">
        <ele>1076.81</ele>
        <time>2019-05-27T07:36:29Z</time>
      </trkpt>
      <trkpt lat="44.42701" lon="5.46222">
        <ele>1081.62</ele>
        <time>2019-05-27T07:36:59Z</time>
      </trkpt>
      <trkpt lat="44.42651" lon="5.4624">
        <ele>1085.95</ele>
        <time>2019-05-27T07:37:29Z</time>
      </trkpt>
      <trkpt lat="44.42681" lon="5.46204">
        <ele>1089.31</ele>
        <time>2019-05-27T07:37:59Z</time>
      </trkpt>
      <trkpt lat="44.42718" lon="5.46174">
        <ele>1091.23</ele>
        <time>2019-05-27T07:38:29Z</time>
      </trkpt>
      <trkpt lat="44.42735" lon="5.46159">
        <ele>1092.2</ele>
        <time>2019-05-27T07:38:59Z</time>
      </trkpt>
      <trkpt lat="44.42768" lon="5.46132">
        <ele>1095.08</ele>
        <time>2019-05-27T07:39:29Z</time>
      </trkpt>
      <trkpt lat="44.42799" lon="5.46109">
        <ele>1099.89</ele>
        <time>2019-05-27T07:39:59Z</time>
      </trkpt>
      <trkpt lat="44.42831" lon="5.46092">
        <ele>1104.69</ele>
        <time>2019-05-27T07:40:29Z</time>
      </trkpt>
      <trkpt lat="44.42863" lon="5.46058">
        <ele>1107.1</ele>
        <time>2019-05-27T07:40:59Z</time>
      </trkpt>
      <trkpt lat="44.4289" lon="5.46038">
        <ele>1111.9</ele>
        <time>2019-05-27T07:41:29Z</time>
      </trkpt>
      <trkpt lat="44.42923" lon="5.4603">
        <ele>1115.75</ele>
        <time>2019-05-27T07:41:59Z</time>
      </trkpt>
      <trkpt lat="44.42951" lon="5.4602">
        <ele>1119.59</ele>
        <time>2019-05-27T07:42:29Z</time>
      </trkpt>
      <trkpt lat="44.4298" lon="5.45992">
        <ele>1124.4</ele>
        <time>2019-05-27T07:42:59Z</time>
      </trkpt>
      <trkpt lat="44.42998" lon="5.45978">
        <ele>1128.73</ele>
        <time>2019-05-27T07:43:29Z</time>
      </trkpt>
      <trkpt lat="44.43018" lon="5.45949">
        <ele>1133.53</ele>
        <time>2019-05-27T07:43:59Z</time>
      </trkpt>
      <trkpt lat="44.43044" lon="5.4592">
        <ele>1136.9</ele>
        <time>2019-05-27T07:44:29Z</time>
      </trkpt>
      <trkpt lat="44.43059" lon="5.45887">
        <ele>1141.22</ele>
        <time>2019-05-27T07:44:59Z</time>
      </trkpt>
      <trkpt lat="44.4306" lon="5.45879">
        <ele>1141.7</ele>
        <time>2019-05-27T07:45:29Z</time>
      </trkpt>
      <trkpt lat="44.43072" lon="5.45844">
        <ele>1146.99</ele>
        <time>2019-05-27T07:45:59Z</time>
      </trkpt>
      <trkpt lat="44.43083" lon="5.45813">
        <ele>1151.8</ele>
        <time>2019-05-27T07:46:29Z</time>
      </trkpt>
      <trkpt lat="44.43097" lon="5.45773">
        <ele>1155.64</ele>
        <time>2019-05-27T07:46:59Z</time>
      </trkpt>
      <trkpt lat="44.43109" lon="5.45735">
        <ele>1159.97</ele>
        <time>2019-05-27T07:47:29Z</time>
      </trkpt>
      <trkpt lat="44.43127" lon="5.45701">
        <ele>1163.33</ele>
        <time>2019-05-27T07:47:59Z</time>
      </trkpt>
      <trkpt lat="44.43155" lon="5.45661">
        <ele>1166.7</ele>
        <time>2019-05-27T07:48:29Z</time>
      </trkpt>
      <trkpt lat="44.43177" lon="5.45612">
        <ele>1169.58</ele>
        <time>2019-05-27T07:48:59Z</time>
      </trkpt>
      <trkpt lat="44.4319" lon="5.45568">
        <ele>1174.39</ele>
        <time>2019-05-27T07:49:29Z</time>
      </trkpt>
      <trkpt lat="44.4321" lon="5.45522">
        <ele>1177.75</ele>
        <time>2019-05-27T07:49:59Z</time>
      </trkpt>
      <trkpt lat="44.43239" lon="5.4547">
        <ele>1181.6</ele>
        <time>2019-05-27T07:50:29Z</time>
      </trkpt>
      <trkpt lat="44.43261" lon="5.45426">
        <ele>1184.96</ele>
        <time>2019-05-27T07:50:59Z</time>
      </trkpt>
      <trkpt lat="44.43269" lon="5.45388">
        <ele>1189.29</ele>
        <time>2019-05-27T07:51:29Z</time>
      </trkpt>
      <trkpt lat="44.43294" lon="5.45345">
        <ele>1194.09</ele>
        <time>2019-05-27T07:51:59Z</time>
      </trkpt>
      <trkpt lat="44.43328" lon="5.45293">
        <ele>1195.06</ele>
        <time>2019-05-27T07:52:29Z</time>
      </trkpt>
      <trkpt lat="44.43359" lon="5.45201">
        <ele>1194.09</ele>
        <time>2019-05-27T07:52:59Z</time>
      </trkpt>
      <trkpt lat="44.43366" lon="5.45159">
        <ele>1199.38</ele>
        <time>2019-05-27T07:53:29Z</time>
      </trkpt>
      <trkpt lat="44.4337" lon="5.45146">
        <ele>1200.34</ele>
        <time>2019-05-27T07:53:59Z</time>
      </trkpt>
      <trkpt lat="44.43367" lon="5.45146">
        <ele>1200.34</ele>
        <time>2019-05-27T07:54:29Z</time>
      </trkpt>
      <trkpt lat="44.43366" lon="5.45144">
        <ele>1200.34</ele>
        <time>2019-05-27T07:54:59Z</time>
      </trkpt>
      <trkpt lat="44.43364" lon="5.45141">
        <ele>1200.82</ele>
        <time>2019-05-27T07:55:29Z</time>
      </trkpt>
      <trkpt lat="44.43372" lon="5.45094">
        <ele>1203.23</ele>
        <time>2019-05-27T07:55:59Z</time>
      </trkpt>
      <trkpt lat="44.43382" lon="5.45042">
        <ele>1207.55</ele>
        <time>2019-05-27T07:56:29Z</time>
      </trkpt>
      <trkpt lat="44.43392" lon="5.44997">
        <ele>1209.96</ele>
        <time>2019-05-27T07:56:59Z</time>
      </trkpt>
      <trkpt lat="44.43397" lon="5.44971">
        <ele>1214.76</ele>
        <time>2019-05-27T07:57:29Z</time>
      </trkpt>
      <trkpt lat="44.43403" lon="5.4494">
        <ele>1219.09</ele>
        <time>2019-05-27T07:57:59Z</time>
      </trkpt>
      <trkpt lat="44.43402" lon="5.44906">
        <ele>1223.42</ele>
        <time>2019-05-27T07:58:29Z</time>
      </trkpt>
      <trkpt lat="44.43409" lon="5.44875">
        <ele>1226.78</ele>
        <time>2019-05-27T07:58:59Z</time>
      </trkpt>
      <trkpt lat="44.43414" lon="5.44816">
        <ele>1229.18</ele>
        <time>2019-05-27T07:59:29Z</time>
      </trkpt>
      <trkpt lat="44.43428" lon="5.44774">
        <ele>1232.07</ele>
        <time>2019-05-27T07:59:59Z</time>
      </trkpt>
      <trkpt lat="44.43452" lon="5.4475">
        <ele>1236.87</ele>
        <time>2019-05-27T08:00:29Z</time>
      </trkpt>
      <trkpt lat="44.43461" lon="5.44727">
        <ele>1241.2</ele>
        <time>2019-05-27T08:00:59Z</time>
      </trkpt>
      <trkpt lat="44.4347" lon="5.44698">
        <ele>1245.04</ele>
        <time>2019-05-27T08:01:29Z</time>
      </trkpt>
      <trkpt lat="44.43482" lon="5.44664">
        <ele>1247.45</ele>
        <time>2019-05-27T08:01:59Z</time>
      </trkpt>
      <trkpt lat="44.43493" lon="5.44615">
        <ele>1251.29</ele>
        <time>2019-05-27T08:02:29Z</time>
      </trkpt>
      <trkpt lat="44.43494" lon="5.44567">
        <ele>1254.66</ele>
        <time>2019-05-27T08:02:59Z</time>
      </trkpt>
      <trkpt lat="44.43509" lon="5.44519">
        <ele>1258.02</ele>
        <time>2019-05-27T08:03:29Z</time>
      </trkpt>
      <trkpt lat="44.43499" lon="5.44476">
        <ele>1261.87</ele>
        <time>2019-05-27T08:03:59Z</time>
      </trkpt>
      <trkpt lat="44.43505" lon="5.44454">
        <ele>1266.19</ele>
        <time>2019-05-27T08:04:29Z</time>
      </trkpt>
      <trkpt lat="44.43521" lon="5.44426">
        <ele>1271</ele>
        <time>2019-05-27T08:04:59Z</time>
      </trkpt>
      <trkpt lat="44.43532" lon="5.44396">
        <ele>1274.36</ele>
        <time>2019-05-27T08:05:29Z</time>
      </trkpt>
      <trkpt lat="44.43535" lon="5.44361">
        <ele>1279.17</ele>
        <time>2019-05-27T08:05:59Z</time>
      </trkpt>
      <trkpt lat="44.4354" lon="5.44324">
        <ele>1281.57</ele>
        <time>2019-05-27T08:06:29Z</time>
      </trkpt>
      <trkpt lat="44.43553" lon="5.44265">
        <ele>1283.02</ele>
        <time>2019-05-27T08:06:59Z</time>
      </trkpt>
      <trkpt lat="44.43552" lon="5.44261">
        <ele>1283.5</ele>
        <time>2019-05-27T08:07:28Z</time>
      </trkpt>
      <trkpt lat="44.43553" lon="5.44265">
        <ele>1283.5</ele>
        <time>2019-05-27T08:07:59Z</time>
      </trkpt>
      <trkpt lat="44.43554" lon="5.4426">
        <ele>1283.5</ele>
        <time>2019-05-27T08:08:29Z</time>
      </trkpt>
      <trkpt lat="44.43554" lon="5.4426">
        <ele>1283.98</ele>
        <time>2019-05-27T08:08:59Z</time>
      </trkpt>
      <trkpt lat="44.43556" lon="5.44258">
        <ele>1283.5</ele>
        <time>2019-05-27T08:09:30Z</time>
      </trkpt>
      <trkpt lat="44.43557" lon="5.44259">
        <ele>1283.98</ele>
        <time>2019-05-27T08:10:01Z</time>
      </trkpt>
      <trkpt lat="44.4356" lon="5.44259">
        <ele>1283.98</ele>
        <time>2019-05-27T08:10:31Z</time>
      </trkpt>
      <trkpt lat="44.43559" lon="5.44267">
        <ele>1284.46</ele>
        <time>2019-05-27T08:11:01Z</time>
      </trkpt>
      <trkpt lat="44.43555" lon="5.44266">
        <ele>1284.46</ele>
        <time>2019-05-27T08:11:31Z</time>
      </trkpt>
      <trkpt lat="44.4355" lon="5.44265">
        <ele>1283.5</ele>
        <time>2019-05-27T08:12:01Z</time>
      </trkpt>
      <trkpt lat="44.43554" lon="5.44259">
        <ele>1283.5</ele>
        <time>2019-05-27T08:12:31Z</time>
      </trkpt>
      <trkpt lat="44.43554" lon="5.44261">
        <ele>1283.02</ele>
        <time>2019-05-27T08:13:01Z</time>
      </trkpt>
      <trkpt lat="44.43544" lon="5.4426">
        <ele>1283.02</ele>
        <time>2019-05-27T08:13:31Z</time>
      </trkpt>
      <trkpt lat="44.43545" lon="5.44256">
        <ele>1282.54</ele>
        <time>2019-05-27T08:14:01Z</time>
      </trkpt>
      <trkpt lat="44.43538" lon="5.44253">
        <ele>1282.54</ele>
        <time>2019-05-27T08:14:31Z</time>
      </trkpt>
      <trkpt lat="44.4354" lon="5.44249">
        <ele>1282.54</ele>
        <time>2019-05-27T08:15:01Z</time>
      </trkpt>
      <trkpt lat="44.43551" lon="5.4426">
        <ele>1284.94</ele>
        <time>2019-05-27T08:15:31Z</time>
      </trkpt>
      <trkpt lat="44.4356" lon="5.44261">
        <ele>1286.86</ele>
        <time>2019-05-27T08:16:01Z</time>
      </trkpt>
      <trkpt lat="44.43555" lon="5.44254">
        <ele>1291.19</ele>
        <time>2019-05-27T08:16:31Z</time>
      </trkpt>
      <trkpt lat="44.43551" lon="5.44236">
        <ele>1295.51</ele>
        <time>2019-05-27T08:17:01Z</time>
      </trkpt>
      <trkpt lat="44.43551" lon="5.44228">
        <ele>1299.84</ele>
        <time>2019-05-27T08:17:31Z</time>
      </trkpt>
      <trkpt lat="44.43553" lon="5.44224">
        <ele>1302.24</ele>
        <time>2019-05-27T08:18:01Z</time>
      </trkpt>
      <trkpt lat="44.43545" lon="5.44218">
        <ele>1306.57</ele>
        <time>2019-05-27T08:18:31Z</time>
      </trkpt>
      <trkpt lat="44.4354" lon="5.44205">
        <ele>1310.9</ele>
        <time>2019-05-27T08:19:01Z</time>
      </trkpt>
      <trkpt lat="44.43538" lon="5.44189">
        <ele>1315.22</ele>
        <time>2019-05-27T08:19:31Z</time>
      </trkpt>
      <trkpt lat="44.43538" lon="5.44177">
        <ele>1319.55</ele>
        <time>2019-05-27T08:20:01Z</time>
      </trkpt>
      <trkpt lat="44.43541" lon="5.44154">
        <ele>1322.43</ele>
        <time>2019-05-27T08:20:31Z</time>
      </trkpt>
      <trkpt lat="44.43542" lon="5.4414">
        <ele>1326.76</ele>
        <time>2019-05-27T08:21:01Z</time>
      </trkpt>
      <trkpt lat="44.4354" lon="5.4412">
        <ele>1331.56</ele>
        <time>2019-05-27T08:21:31Z</time>
      </trkpt>
      <trkpt lat="44.43539" lon="5.441">
        <ele>1334.93</ele>
        <time>2019-05-27T08:22:01Z</time>
      </trkpt>
      <trkpt lat="44.4354" lon="5.44089">
        <ele>1338.77</ele>
        <time>2019-05-27T08:22:31Z</time>
      </trkpt>
      <trkpt lat="44.43542" lon="5.44074">
        <ele>1343.1</ele>
        <time>2019-05-27T08:23:01Z</time>
      </trkpt>
      <trkpt lat="44.4354" lon="5.44053">
        <ele>1348.39</ele>
        <time>2019-05-27T08:23:31Z</time>
      </trkpt>
      <trkpt lat="44.43543" lon="5.4403">
        <ele>1351.75</ele>
        <time>2019-05-27T08:24:01Z</time>
      </trkpt>
      <trkpt lat="44.43544" lon="5.44003">
        <ele>1356.08</ele>
        <time>2019-05-27T08:24:31Z</time>
      </trkpt>
      <trkpt lat="44.43544" lon="5.4398">
        <ele>1358.48</ele>
        <time>2019-05-27T08:25:01Z</time>
      </trkpt>
      <trkpt lat="44.43545" lon="5.43935">
        <ele>1362.81</ele>
        <time>2019-05-27T08:25:31Z</time>
      </trkpt>
      <trkpt lat="44.43531" lon="5.4393">
        <ele>1365.69</ele>
        <time>2019-05-27T08:26:01Z</time>
      </trkpt>
      <trkpt lat="44.43521" lon="5.43952">
        <ele>1370.02</ele>
        <time>2019-05-27T08:26:31Z</time>
      </trkpt>
      <trkpt lat="44.43513" lon="5.43969">
        <ele>1373.38</ele>
        <time>2019-05-27T08:27:01Z</time>
      </trkpt>
      <trkpt lat="44.43505" lon="5.43974">
        <ele>1373.86</ele>
        <time>2019-05-27T08:27:31Z</time>
      </trkpt>
      <trkpt lat="44.43498" lon="5.43992">
        <ele>1374.82</ele>
        <time>2019-05-27T08:28:01Z</time>
      </trkpt>
      <trkpt lat="44.43494" lon="5.44021">
        <ele>1378.67</ele>
        <time>2019-05-27T08:28:31Z</time>
      </trkpt>
      <trkpt lat="44.43486" lon="5.44054">
        <ele>1380.59</ele>
        <time>2019-05-27T08:29:01Z</time>
      </trkpt>
      <trkpt lat="44.43471" lon="5.44084">
        <ele>1384.92</ele>
        <time>2019-05-27T08:29:31Z</time>
      </trkpt>
      <trkpt lat="44.43458" lon="5.44104">
        <ele>1388.28</ele>
        <time>2019-05-27T08:30:01Z</time>
      </trkpt>
      <trkpt lat="44.43442" lon="5.44127">
        <ele>1391.65</ele>
        <time>2019-05-27T08:30:31Z</time>
      </trkpt>
      <trkpt lat="44.43425" lon="5.44146">
        <ele>1393.57</ele>
        <time>2019-05-27T08:31:01Z</time>
      </trkpt>
      <trkpt lat="44.43406" lon="5.44176">
        <ele>1395.97</ele>
        <time>2019-05-27T08:31:31Z</time>
      </trkpt>
      <trkpt lat="44.43393" lon="5.44188">
        <ele>1399.82</ele>
        <time>2019-05-27T08:32:01Z</time>
      </trkpt>
      <trkpt lat="44.43383" lon="5.44199">
        <ele>1403.66</ele>
        <time>2019-05-27T08:32:31Z</time>
      </trkpt>
      <trkpt lat="44.43377" lon="5.44201">
        <ele>1405.1</ele>
        <time>2019-05-27T08:33:01Z</time>
      </trkpt>
      <trkpt lat="44.43372" lon="5.44188">
        <ele>1411.35</ele>
        <time>2019-05-27T08:33:31Z</time>
      </trkpt>
      <trkpt lat="44.43374" lon="5.44181">
        <ele>1413.28</ele>
        <time>2019-05-27T08:34:01Z</time>
      </trkpt>
      <trkpt lat="44.43375" lon="5.44181">
        <ele>1413.76</ele>
        <time>2019-05-27T08:34:31Z</time>
      </trkpt>
      <trkpt lat="44.43378" lon="5.44178">
        <ele>1417.6</ele>
        <time>2019-05-27T08:35:01Z</time>
      </trkpt>
      <trkpt lat="44.43373" lon="5.44165">
        <ele>1421.93</ele>
        <time>2019-05-27T08:35:31Z</time>
      </trkpt>
      <trkpt lat="44.43373" lon="5.44151">
        <ele>1426.73</ele>
        <time>2019-05-27T08:36:01Z</time>
      </trkpt>
      <trkpt lat="44.43373" lon="5.44138">
        <ele>1431.54</ele>
        <time>2019-05-27T08:36:31Z</time>
      </trkpt>
      <trkpt lat="44.43376" lon="5.44127">
        <ele>1435.39</ele>
        <time>2019-05-27T08:37:01Z</time>
      </trkpt>
      <trkpt lat="44.43376" lon="5.44117">
        <ele>1440.67</ele>
        <time>2019-05-27T08:37:31Z</time>
      </trkpt>
      <trkpt lat="44.43374" lon="5.44102">
        <ele>1445.96</ele>
        <time>2019-05-27T08:38:01Z</time>
      </trkpt>
      <trkpt lat="44.43376" lon="5.44086">
        <ele>1451.25</ele>
        <time>2019-05-27T08:38:31Z</time>
      </trkpt>
      <trkpt lat="44.43376" lon="5.44074">
        <ele>1455.09</ele>
        <time>2019-05-27T08:39:01Z</time>
      </trkpt>
      <trkpt lat="44.43377" lon="5.44063">
        <ele>1458.94</ele>
        <time>2019-05-27T08:39:31Z</time>
      </trkpt>
      <trkpt lat="44.43374" lon="5.44041">
        <ele>1463.26</ele>
        <time>2019-05-27T08:40:01Z</time>
      </trkpt>
      <trkpt lat="44.4337" lon="5.44031">
        <ele>1467.59</ele>
        <time>2019-05-27T08:40:31Z</time>
      </trkpt>
      <trkpt lat="44.43375" lon="5.44018">
        <ele>1469.99</ele>
        <time>2019-05-27T08:41:01Z</time>
      </trkpt>
      <trkpt lat="44.43374" lon="5.4401">
        <ele>1468.55</ele>
        <time>2019-05-27T08:41:31Z</time>
      </trkpt>
      <trkpt lat="44.43372" lon="5.4401">
        <ele>1468.55</ele>
        <time>2019-05-27T08:42:01Z</time>
      </trkpt>
      <trkpt lat="44.43371" lon="5.44012">
        <ele>1469.51</ele>
        <time>2019-05-27T08:42:31Z</time>
      </trkpt>
      <trkpt lat="44.43371" lon="5.4401">
        <ele>1469.99</ele>
        <time>2019-05-27T08:43:01Z</time>
      </trkpt>
      <trkpt lat="44.43371" lon="5.4401">
        <ele>1468.55</ele>
        <time>2019-05-27T08:43:31Z</time>
      </trkpt>
      <trkpt lat="44.43374" lon="5.44004">
        <ele>1469.99</ele>
        <time>2019-05-27T08:44:01Z</time>
      </trkpt>
      <trkpt lat="44.43376" lon="5.43977">
        <ele>1464.71</ele>
        <time>2019-05-27T08:44:31Z</time>
      </trkpt>
      <trkpt lat="44.43389" lon="5.4396">
        <ele>1463.74</ele>
        <time>2019-05-27T08:45:01Z</time>
      </trkpt>
      <trkpt lat="44.43388" lon="5.43954">
        <ele>1462.3</ele>
        <time>2019-05-27T08:45:31Z</time>
      </trkpt>
      <trkpt lat="44.43389" lon="5.43957">
        <ele>1462.3</ele>
        <time>2019-05-27T08:46:01Z</time>
      </trkpt>
      <trkpt lat="44.43388" lon="5.43959">
        <ele>1463.26</ele>
        <time>2019-05-27T08:46:31Z</time>
      </trkpt>
      <trkpt lat="44.43385" lon="5.43972">
        <ele>1465.67</ele>
        <time>2019-05-27T08:47:01Z</time>
      </trkpt>
      <trkpt lat="44.43375" lon="5.43987">
        <ele>1464.71</ele>
        <time>2019-05-27T08:47:31Z</time>
      </trkpt>
      <trkpt lat="44.43373" lon="5.44007">
        <ele>1468.07</ele>
        <time>2019-05-27T08:48:01Z</time>
      </trkpt>
      <trkpt lat="44.4335" lon="5.44001">
        <ele>1469.51</ele>
        <time>2019-05-27T08:48:31Z</time>
      </trkpt>
      <trkpt lat="44.43344" lon="5.44">
        <ele>1473.36</ele>
        <time>2019-05-27T08:49:01Z</time>
      </trkpt>
      <trkpt lat="44.43342" lon="5.43997">
        <ele>1472.88</ele>
        <time>2019-05-27T08:49:31Z</time>
      </trkpt>
      <trkpt lat="44.4334" lon="5.43993">
        <ele>1474.32</ele>
        <time>2019-05-27T08:50:01Z</time>
      </trkpt>
      <trkpt lat="44.43346" lon="5.43963">
        <ele>1472.88</ele>
        <time>2019-05-27T08:50:31Z</time>
      </trkpt>
      <trkpt lat="44.43359" lon="5.4384">
        <ele>1465.67</ele>
        <time>2019-05-27T08:51:01Z</time>
      </trkpt>
      <trkpt lat="44.43357" lon="5.43799">
        <ele>1467.59</ele>
        <time>2019-05-27T08:51:31Z</time>
      </trkpt>
      <trkpt lat="44.43349" lon="5.43725">
        <ele>1467.59</ele>
        <time>2019-05-27T08:52:01Z</time>
      </trkpt>
      <trkpt lat="44.43352" lon="5.43645">
        <ele>1465.67</ele>
        <time>2019-05-27T08:52:31Z</time>
      </trkpt>
      <trkpt lat="44.43356" lon="5.43551">
        <ele>1455.57</ele>
        <time>2019-05-27T08:53:01Z</time>
      </trkpt>
      <trkpt lat="44.43364" lon="5.43447">
        <ele>1445.48</ele>
        <time>2019-05-27T08:53:31Z</time>
      </trkpt>
      <trkpt lat="44.43315" lon="5.43377">
        <ele>1435.39</ele>
        <time>2019-05-27T08:54:01Z</time>
      </trkpt>
      <trkpt lat="44.4331" lon="5.43374">
        <ele>1436.83</ele>
        <time>2019-05-27T08:54:31Z</time>
      </trkpt>
      <trkpt lat="44.43291" lon="5.43353">
        <ele>1441.15</ele>
        <time>2019-05-27T08:55:01Z</time>
      </trkpt>
      <trkpt lat="44.43278" lon="5.4334">
        <ele>1443.56</ele>
        <time>2019-05-27T08:55:31Z</time>
      </trkpt>
      <trkpt lat="44.43262" lon="5.43324">
        <ele>1445.96</ele>
        <time>2019-05-27T08:56:01Z</time>
      </trkpt>
      <trkpt lat="44.43242" lon="5.43302">
        <ele>1449.32</ele>
        <time>2019-05-27T08:56:31Z</time>
      </trkpt>
      <trkpt lat="44.43224" lon="5.43275">
        <ele>1447.4</ele>
        <time>2019-05-27T08:57:01Z</time>
      </trkpt>
      <trkpt lat="44.43196" lon="5.43202">
        <ele>1448.84</ele>
        <time>2019-05-27T08:57:31Z</time>
      </trkpt>
      <trkpt lat="44.43213" lon="5.43215">
        <ele>1452.21</ele>
        <time>2019-05-27T08:58:01Z</time>
      </trkpt>
      <trkpt lat="44.43224" lon="5.43224">
        <ele>1453.65</ele>
        <time>2019-05-27T08:58:31Z</time>
      </trkpt>
      <trkpt lat="44.43245" lon="5.43237">
        <ele>1459.42</ele>
        <time>2019-05-27T08:59:01Z</time>
      </trkpt>
      <trkpt lat="44.43267" lon="5.43246">
        <ele>1460.86</ele>
        <time>2019-05-27T08:59:31Z</time>
      </trkpt>
      <trkpt lat="44.43287" lon="5.43249">
        <ele>1464.23</ele>
        <time>2019-05-27T09:00:01Z</time>
      </trkpt>
      <trkpt lat="44.43266" lon="5.43235">
        <ele>1463.26</ele>
        <time>2019-05-27T09:00:31Z</time>
      </trkpt>
      <trkpt lat="44.43252" lon="5.4322">
        <ele>1461.34</ele>
        <time>2019-05-27T09:01:01Z</time>
      </trkpt>
      <trkpt lat="44.43234" lon="5.43196">
        <ele>1459.9</ele>
        <time>2019-05-27T09:01:31Z</time>
      </trkpt>
      <trkpt lat="44.43212" lon="5.43152">
        <ele>1463.26</ele>
        <time>2019-05-27T09:02:01Z</time>
      </trkpt>
      <trkpt lat="44.43193" lon="5.43113">
        <ele>1452.69</ele>
        <time>2019-05-27T09:02:31Z</time>
      </trkpt>
      <trkpt lat="44.43173" lon="5.43074">
        <ele>1447.4</ele>
        <time>2019-05-27T09:03:01Z</time>
      </trkpt>
      <trkpt lat="44.4315" lon="5.43039">
        <ele>1443.08</ele>
        <time>2019-05-27T09:03:31Z</time>
      </trkpt>
      <trkpt lat="44.43108" lon="5.42945">
        <ele>1434.91</ele>
        <time>2019-05-27T09:04:01Z</time>
      </trkpt>
      <trkpt lat="44.43063" lon="5.42876">
        <ele>1426.25</ele>
        <time>2019-05-27T09:04:31Z</time>
      </trkpt>
      <trkpt lat="44.4303" lon="5.42839">
        <ele>1426.73</ele>
        <time>2019-05-27T09:05:01Z</time>
      </trkpt>
      <trkpt lat="44.4301" lon="5.42818">
        <ele>1424.81</ele>
        <time>2019-05-27T09:05:30Z</time>
      </trkpt>
      <trkpt lat="44.42976" lon="5.42776">
        <ele>1426.73</ele>
        <time>2019-05-27T09:06:00Z</time>
      </trkpt>
      <trkpt lat="44.42941" lon="5.4271">
        <ele>1422.41</ele>
        <time>2019-05-27T09:06:30Z</time>
      </trkpt>
      <trkpt lat="44.42896" lon="5.42628">
        <ele>1416.16</ele>
        <time>2019-05-27T09:07:00Z</time>
      </trkpt>
      <trkpt lat="44.42875" lon="5.42594">
        <ele>1415.2</ele>
        <time>2019-05-27T09:07:30Z</time>
      </trkpt>
      <trkpt lat="44.42827" lon="5.42502">
        <ele>1413.28</ele>
        <time>2019-05-27T09:08:00Z</time>
      </trkpt>
      <trkpt lat="44.42809" lon="5.42468">
        <ele>1410.39</ele>
        <time>2019-05-27T09:08:30Z</time>
      </trkpt>
      <trkpt lat="44.42806" lon="5.42454">
        <ele>1411.83</ele>
        <time>2019-05-27T09:09:00Z</time>
      </trkpt>
      <trkpt lat="44.42799" lon="5.4242">
        <ele>1412.31</ele>
        <time>2019-05-27T09:09:30Z</time>
      </trkpt>
      <trkpt lat="44.42792" lon="5.42393">
        <ele>1410.87</ele>
        <time>2019-05-27T09:10:00Z</time>
      </trkpt>
      <trkpt lat="44.4278" lon="5.42358">
        <ele>1409.43</ele>
        <time>2019-05-27T09:10:30Z</time>
      </trkpt>
      <trkpt lat="44.42771" lon="5.42333">
        <ele>1409.43</ele>
        <time>2019-05-27T09:11:00Z</time>
      </trkpt>
      <trkpt lat="44.42755" lon="5.4229">
        <ele>1407.03</ele>
        <time>2019-05-27T09:11:30Z</time>
      </trkpt>
      <trkpt lat="44.42734" lon="5.4226">
        <ele>1400.78</ele>
        <time>2019-05-27T09:12:00Z</time>
      </trkpt>
      <trkpt lat="44.42725" lon="5.42247">
        <ele>1394.53</ele>
        <time>2019-05-27T09:12:30Z</time>
      </trkpt>
      <trkpt lat="44.42716" lon="5.42227">
        <ele>1394.53</ele>
        <time>2019-05-27T09:13:00Z</time>
      </trkpt>
      <trkpt lat="44.42706" lon="5.42198">
        <ele>1391.65</ele>
        <time>2019-05-27T09:13:30Z</time>
      </trkpt>
      <trkpt lat="44.42698" lon="5.4218">
        <ele>1387.8</ele>
        <time>2019-05-27T09:14:00Z</time>
      </trkpt>
      <trkpt lat="44.42686" lon="5.42161">
        <ele>1382.51</ele>
        <time>2019-05-27T09:14:30Z</time>
      </trkpt>
      <trkpt lat="44.42677" lon="5.42147">
        <ele>1378.67</ele>
        <time>2019-05-27T09:15:00Z</time>
      </trkpt>
      <trkpt lat="44.42666" lon="5.42127">
        <ele>1374.34</ele>
        <time>2019-05-27T09:15:30Z</time>
      </trkpt>
      <trkpt lat="44.42643" lon="5.42082">
        <ele>1367.61</ele>
        <time>2019-05-27T09:16:00Z</time>
      </trkpt>
      <trkpt lat="44.42606" lon="5.42028">
        <ele>1365.21</ele>
        <time>2019-05-27T09:16:30Z</time>
      </trkpt>
      <trkpt lat="44.42598" lon="5.4201">
        <ele>1366.17</ele>
        <time>2019-05-27T09:17:00Z</time>
      </trkpt>
      <trkpt lat="44.42591" lon="5.41994">
        <ele>1364.25</ele>
        <time>2019-05-27T09:17:30Z</time>
      </trkpt>
      <trkpt lat="44.4259" lon="5.41994">
        <ele>1363.77</ele>
        <time>2019-05-27T09:18:00Z</time>
      </trkpt>
      <trkpt lat="44.4258" lon="5.4198">
        <ele>1362.33</ele>
        <time>2019-05-27T09:18:30Z</time>
      </trkpt>
      <trkpt lat="44.4255" lon="5.41943">
        <ele>1357.52</ele>
        <time>2019-05-27T09:19:00Z</time>
      </trkpt>
      <trkpt lat="44.42496" lon="5.41848">
        <ele>1345.98</ele>
        <time>2019-05-27T09:19:30Z</time>
      </trkpt>
      <trkpt lat="44.42489" lon="5.41821">
        <ele>1345.02</ele>
        <time>2019-05-27T09:20:00Z</time>
      </trkpt>
      <trkpt lat="44.42482" lon="5.41783">
        <ele>1349.35</ele>
        <time>2019-05-27T09:20:30Z</time>
      </trkpt>
      <trkpt lat="44.42467" lon="5.4174">
        <ele>1349.83</ele>
        <time>2019-05-27T09:21:00Z</time>
      </trkpt>
      <trkpt lat="44.42448" lon="5.41714">
        <ele>1344.06</ele>
        <time>2019-05-27T09:21:30Z</time>
      </trkpt>
      <trkpt lat="44.42431" lon="5.41662">
        <ele>1343.1</ele>
        <time>2019-05-27T09:22:00Z</time>
      </trkpt>
      <trkpt lat="44.4241" lon="5.416">
        <ele>1342.62</ele>
        <time>2019-05-27T09:22:30Z</time>
      </trkpt>
      <trkpt lat="44.42391" lon="5.41563">
        <ele>1341.66</ele>
        <time>2019-05-27T09:23:00Z</time>
      </trkpt>
      <trkpt lat="44.42335" lon="5.41487">
        <ele>1327.72</ele>
        <time>2019-05-27T09:23:30Z</time>
      </trkpt>
      <trkpt lat="44.42296" lon="5.41392">
        <ele>1324.83</ele>
        <time>2019-05-27T09:24:00Z</time>
      </trkpt>
      <trkpt lat="44.42296" lon="5.41393">
        <ele>1324.35</ele>
        <time>2019-05-27T09:24:30Z</time>
      </trkpt>
      <trkpt lat="44.42293" lon="5.4136">
        <ele>1324.83</ele>
        <time>2019-05-27T09:25:00Z</time>
      </trkpt>
      <trkpt lat="44.42279" lon="5.41322">
        <ele>1324.83</ele>
        <time>2019-05-27T09:25:30Z</time>
      </trkpt>
      <trkpt lat="44.42276" lon="5.4129">
        <ele>1328.68</ele>
        <time>2019-05-27T09:26:00Z</time>
      </trkpt>
      <trkpt lat="44.42266" lon="5.4125">
        <ele>1327.24</ele>
        <time>2019-05-27T09:26:30Z</time>
      </trkpt>
      <trkpt lat="44.4226" lon="5.41228">
        <ele>1327.72</ele>
        <time>2019-05-27T09:27:00Z</time>
      </trkpt>
      <trkpt lat="44.42249" lon="5.4121">
        <ele>1324.83</ele>
        <time>2019-05-27T09:27:30Z</time>
      </trkpt>
      <trkpt lat="44.42234" lon="5.41179">
        <ele>1321.95</ele>
        <time>2019-05-27T09:28:00Z</time>
      </trkpt>
      <trkpt lat="44.42221" lon="5.41141">
        <ele>1318.59</ele>
        <time>2019-05-27T09:28:30Z</time>
      </trkpt>
      <trkpt lat="44.42199" lon="5.41078">
        <ele>1314.26</ele>
        <time>2019-05-27T09:29:00Z</time>
      </trkpt>
      <trkpt lat="44.42148" lon="5.40963">
        <ele>1307.05</ele>
        <time>2019-05-27T09:29:30Z</time>
      </trkpt>
      <trkpt lat="44.42139" lon="5.40945">
        <ele>1309.93</ele>
        <time>2019-05-27T09:30:00Z</time>
      </trkpt>
      <trkpt lat="44.42137" lon="5.40913">
        <ele>1313.78</ele>
        <time>2019-05-27T09:30:30Z</time>
      </trkpt>
      <trkpt lat="44.42136" lon="5.4091">
        <ele>1313.78</ele>
        <time>2019-05-27T09:31:00Z</time>
      </trkpt>
      <trkpt lat="44.42125" lon="5.40873">
        <ele>1316.66</ele>
        <time>2019-05-27T09:31:30Z</time>
      </trkpt>
      <trkpt lat="44.42121" lon="5.40853">
        <ele>1319.07</ele>
        <time>2019-05-27T09:32:00Z</time>
      </trkpt>
      <trkpt lat="44.42115" lon="5.40836">
        <ele>1320.51</ele>
        <time>2019-05-27T09:32:30Z</time>
      </trkpt>
      <trkpt lat="44.42108" lon="5.40816">
        <ele>1323.39</ele>
        <time>2019-05-27T09:33:00Z</time>
      </trkpt>
      <trkpt lat="44.42106" lon="5.40796">
        <ele>1327.72</ele>
        <time>2019-05-27T09:33:30Z</time>
      </trkpt>
      <trkpt lat="44.42103" lon="5.40779">
        <ele>1331.08</ele>
        <time>2019-05-27T09:34:00Z</time>
      </trkpt>
      <trkpt lat="44.42101" lon="5.4076">
        <ele>1334.93</ele>
        <time>2019-05-27T09:34:30Z</time>
      </trkpt>
      <trkpt lat="44.42092" lon="5.40748">
        <ele>1335.89</ele>
        <time>2019-05-27T09:35:00Z</time>
      </trkpt>
      <trkpt lat="44.42094" lon="5.40739">
        <ele>1338.77</ele>
        <time>2019-05-27T09:35:30Z</time>
      </trkpt>
      <trkpt lat="44.42084" lon="5.40724">
        <ele>1338.77</ele>
        <time>2019-05-27T09:36:00Z</time>
      </trkpt>
      <trkpt lat="44.42076" lon="5.40705">
        <ele>1340.22</ele>
        <time>2019-05-27T09:36:30Z</time>
      </trkpt>
      <trkpt lat="44.42068" lon="5.40695">
        <ele>1338.77</ele>
        <time>2019-05-27T09:37:00Z</time>
      </trkpt>
      <trkpt lat="44.42058" lon="5.40662">
        <ele>1340.22</ele>
        <time>2019-05-27T09:37:30Z</time>
      </trkpt>
      <trkpt lat="44.4204" lon="5.40631">
        <ele>1338.77</ele>
        <time>2019-05-27T09:38:00Z</time>
      </trkpt>
      <trkpt lat="44.42019" lon="5.40568">
        <ele>1336.37</ele>
        <time>2019-05-27T09:38:30Z</time>
      </trkpt>
      <trkpt lat="44.41974" lon="5.40454">
        <ele>1332.04</ele>
        <time>2019-05-27T09:39:00Z</time>
      </trkpt>
      <trkpt lat="44.41971" lon="5.40436">
        <ele>1331.56</ele>
        <time>2019-05-27T09:39:30Z</time>
      </trkpt>
      <trkpt lat="44.41929" lon="5.40375">
        <ele>1322.91</ele>
        <time>2019-05-27T09:40:00Z</time>
      </trkpt>
      <trkpt lat="44.41897" lon="5.4033">
        <ele>1314.26</ele>
        <time>2019-05-27T09:40:30Z</time>
      </trkpt>
      <trkpt lat="44.4185" lon="5.40237">
        <ele>1303.69</ele>
        <time>2019-05-27T09:41:00Z</time>
      </trkpt>
      <trkpt lat="44.41828" lon="5.40192">
        <ele>1300.8</ele>
        <time>2019-05-27T09:41:30Z</time>
      </trkpt>
      <trkpt lat="44.4182" lon="5.4017">
        <ele>1300.32</ele>
        <time>2019-05-27T09:42:00Z</time>
      </trkpt>
      <trkpt lat="44.41819" lon="5.40168">
        <ele>1300.32</ele>
        <time>2019-05-27T09:42:30Z</time>
      </trkpt>
      <trkpt lat="44.4182" lon="5.40169">
        <ele>1299.36</ele>
        <time>2019-05-27T09:43:00Z</time>
      </trkpt>
      <trkpt lat="44.41818" lon="5.4017">
        <ele>1300.32</ele>
        <time>2019-05-27T09:43:30Z</time>
      </trkpt>
      <trkpt lat="44.41832" lon="5.40201">
        <ele>1301.76</ele>
        <time>2019-05-27T09:44:00Z</time>
      </trkpt>
      <trkpt lat="44.41852" lon="5.40238">
        <ele>1303.2</ele>
        <time>2019-05-27T09:44:30Z</time>
      </trkpt>
      <trkpt lat="44.41867" lon="5.40267">
        <ele>1306.09</ele>
        <time>2019-05-27T09:45:00Z</time>
      </trkpt>
      <trkpt lat="44.4188" lon="5.40295">
        <ele>1309.93</ele>
        <time>2019-05-27T09:45:30Z</time>
      </trkpt>
      <trkpt lat="44.41883" lon="5.40308">
        <ele>1311.86</ele>
        <time>2019-05-27T09:46:00Z</time>
      </trkpt>
      <trkpt lat="44.419" lon="5.40332">
        <ele>1315.7</ele>
        <time>2019-05-27T09:46:30Z</time>
      </trkpt>
      <trkpt lat="44.41918" lon="5.40345">
        <ele>1318.59</ele>
        <time>2019-05-27T09:47:00Z</time>
      </trkpt>
      <trkpt lat="44.41929" lon="5.40367">
        <ele>1321.95</ele>
        <time>2019-05-27T09:47:30Z</time>
      </trkpt>
      <trkpt lat="44.41941" lon="5.40388">
        <ele>1323.87</ele>
        <time>2019-05-27T09:48:00Z</time>
      </trkpt>
      <trkpt lat="44.41958" lon="5.40417">
        <ele>1328.2</ele>
        <time>2019-05-27T09:48:30Z</time>
      </trkpt>
      <trkpt lat="44.4197" lon="5.40436">
        <ele>1331.56</ele>
        <time>2019-05-27T09:49:00Z</time>
      </trkpt>
      <trkpt lat="44.41977" lon="5.40461">
        <ele>1332.04</ele>
        <time>2019-05-27T09:49:30Z</time>
      </trkpt>
      <trkpt lat="44.41989" lon="5.40494">
        <ele>1332.52</ele>
        <time>2019-05-27T09:50:00Z</time>
      </trkpt>
      <trkpt lat="44.42017" lon="5.40564">
        <ele>1335.41</ele>
        <time>2019-05-27T09:50:30Z</time>
      </trkpt>
      <trkpt lat="44.42038" lon="5.40634">
        <ele>1337.33</ele>
        <time>2019-05-27T09:51:00Z</time>
      </trkpt>
      <trkpt lat="44.42055" lon="5.40653">
        <ele>1338.77</ele>
        <time>2019-05-27T09:51:30Z</time>
      </trkpt>
      <trkpt lat="44.42067" lon="5.40682">
        <ele>1338.29</ele>
        <time>2019-05-27T09:52:00Z</time>
      </trkpt>
      <trkpt lat="44.42079" lon="5.40708">
        <ele>1337.81</ele>
        <time>2019-05-27T09:52:30Z</time>
      </trkpt>
      <trkpt lat="44.42089" lon="5.40731">
        <ele>1335.89</ele>
        <time>2019-05-27T09:53:00Z</time>
      </trkpt>
      <trkpt lat="44.42099" lon="5.40747">
        <ele>1334.93</ele>
        <time>2019-05-27T09:53:30Z</time>
      </trkpt>
      <trkpt lat="44.42101" lon="5.40768">
        <ele>1331.56</ele>
        <time>2019-05-27T09:54:00Z</time>
      </trkpt>
      <trkpt lat="44.42106" lon="5.40793">
        <ele>1326.28</ele>
        <time>2019-05-27T09:54:30Z</time>
      </trkpt>
      <trkpt lat="44.42125" lon="5.40875">
        <ele>1314.74</ele>
        <time>2019-05-27T09:55:00Z</time>
      </trkpt>
      <trkpt lat="44.42143" lon="5.40958">
        <ele>1305.13</ele>
        <time>2019-05-27T09:55:30Z</time>
      </trkpt>
      <trkpt lat="44.42166" lon="5.41013">
        <ele>1303.2</ele>
        <time>2019-05-27T09:56:00Z</time>
      </trkpt>
      <trkpt lat="44.42188" lon="5.41051">
        <ele>1306.57</ele>
        <time>2019-05-27T09:56:30Z</time>
      </trkpt>
      <trkpt lat="44.42199" lon="5.41077">
        <ele>1309.45</ele>
        <time>2019-05-27T09:57:00Z</time>
      </trkpt>
      <trkpt lat="44.42211" lon="5.41106">
        <ele>1312.82</ele>
        <time>2019-05-27T09:57:30Z</time>
      </trkpt>
      <trkpt lat="44.42224" lon="5.41137">
        <ele>1315.7</ele>
        <time>2019-05-27T09:58:00Z</time>
      </trkpt>
      <trkpt lat="44.42236" lon="5.41161">
        <ele>1320.03</ele>
        <time>2019-05-27T09:58:30Z</time>
      </trkpt>
      <trkpt lat="44.42246" lon="5.4119">
        <ele>1321.95</ele>
        <time>2019-05-27T09:59:00Z</time>
      </trkpt>
      <trkpt lat="44.4226" lon="5.41219">
        <ele>1324.83</ele>
        <time>2019-05-27T09:59:30Z</time>
      </trkpt>
      <trkpt lat="44.42266" lon="5.4124">
        <ele>1324.35</ele>
        <time>2019-05-27T10:00:00Z</time>
      </trkpt>
      <trkpt lat="44.42267" lon="5.41247">
        <ele>1324.35</ele>
        <time>2019-05-27T10:00:30Z</time>
      </trkpt>
      <trkpt lat="44.42276" lon="5.41293">
        <ele>1323.87</ele>
        <time>2019-05-27T10:01:00Z</time>
      </trkpt>
      <trkpt lat="44.42291" lon="5.4136">
        <ele>1321.47</ele>
        <time>2019-05-27T10:01:30Z</time>
      </trkpt>
      <trkpt lat="44.42314" lon="5.41448">
        <ele>1320.03</ele>
        <time>2019-05-27T10:02:00Z</time>
      </trkpt>
      <trkpt lat="44.42332" lon="5.41489">
        <ele>1322.43</ele>
        <time>2019-05-27T10:02:30Z</time>
      </trkpt>
      <trkpt lat="44.42347" lon="5.41528">
        <ele>1324.83</ele>
        <time>2019-05-27T10:03:00Z</time>
      </trkpt>
      <trkpt lat="44.42364" lon="5.41553">
        <ele>1326.76</ele>
        <time>2019-05-27T10:03:30Z</time>
      </trkpt>
      <trkpt lat="44.42377" lon="5.41578">
        <ele>1329.16</ele>
        <time>2019-05-27T10:04:00Z</time>
      </trkpt>
      <trkpt lat="44.42392" lon="5.41606">
        <ele>1332.04</ele>
        <time>2019-05-27T10:04:30Z</time>
      </trkpt>
      <trkpt lat="44.42412" lon="5.41669">
        <ele>1331.56</ele>
        <time>2019-05-27T10:05:00Z</time>
      </trkpt>
      <trkpt lat="44.42433" lon="5.41718">
        <ele>1334.45</ele>
        <time>2019-05-27T10:05:30Z</time>
      </trkpt>
      <trkpt lat="44.42447" lon="5.41752">
        <ele>1335.89</ele>
        <time>2019-05-27T10:06:00Z</time>
      </trkpt>
      <trkpt lat="44.42467" lon="5.41794">
        <ele>1337.81</ele>
        <time>2019-05-27T10:06:30Z</time>
      </trkpt>
      <trkpt lat="44.42482" lon="5.41833">
        <ele>1341.18</ele>
        <time>2019-05-27T10:07:00Z</time>
      </trkpt>
      <trkpt lat="44.4246" lon="5.41837">
        <ele>1329.16</ele>
        <time>2019-05-27T10:07:30Z</time>
      </trkpt>
      <trkpt lat="44.42433" lon="5.4182">
        <ele>1319.07</ele>
        <time>2019-05-27T10:08:00Z</time>
      </trkpt>
      <trkpt lat="44.42381" lon="5.41773">
        <ele>1303.69</ele>
        <time>2019-05-27T10:08:30Z</time>
      </trkpt>
      <trkpt lat="44.4232" lon="5.41737">
        <ele>1282.54</ele>
        <time>2019-05-27T10:09:00Z</time>
      </trkpt>
      <trkpt lat="44.42263" lon="5.41705">
        <ele>1261.39</ele>
        <time>2019-05-27T10:09:30Z</time>
      </trkpt>
      <trkpt lat="44.42221" lon="5.41684">
        <ele>1246.01</ele>
        <time>2019-05-27T10:10:00Z</time>
      </trkpt>
      <trkpt lat="44.42201" lon="5.41674">
        <ele>1238.8</ele>
        <time>2019-05-27T10:10:30Z</time>
      </trkpt>
      <trkpt lat="44.42178" lon="5.41662">
        <ele>1229.66</ele>
        <time>2019-05-27T10:11:00Z</time>
      </trkpt>
      <trkpt lat="44.42157" lon="5.41651">
        <ele>1221.49</ele>
        <time>2019-05-27T10:11:30Z</time>
      </trkpt>
      <trkpt lat="44.4213" lon="5.41637">
        <ele>1212.36</ele>
        <time>2019-05-27T10:12:00Z</time>
      </trkpt>
      <trkpt lat="44.42107" lon="5.41627">
        <ele>1203.71</ele>
        <time>2019-05-27T10:12:30Z</time>
      </trkpt>
      <trkpt lat="44.42037" lon="5.41587">
        <ele>1183.52</ele>
        <time>2019-05-27T10:13:00Z</time>
      </trkpt>
      <trkpt lat="44.41933" lon="5.4154">
        <ele>1159.97</ele>
        <time>2019-05-27T10:13:30Z</time>
      </trkpt>
      <trkpt lat="44.41824" lon="5.41487">
        <ele>1136.9</ele>
        <time>2019-05-27T10:14:00Z</time>
      </trkpt>
      <trkpt lat="44.4172" lon="5.41437">
        <ele>1115.27</ele>
        <time>2019-05-27T10:14:30Z</time>
      </trkpt>
      <trkpt lat="44.41623" lon="5.41445">
        <ele>1114.31</ele>
        <time>2019-05-27T10:15:00Z</time>
      </trkpt>
      <trkpt lat="44.41612" lon="5.41451">
        <ele>1114.79</ele>
        <time>2019-05-27T10:15:30Z</time>
      </trkpt>
      <trkpt lat="44.41612" lon="5.41451">
        <ele>1114.79</ele>
        <time>2019-05-27T10:16:00Z</time>
      </trkpt>
      <trkpt lat="44.41605" lon="5.41494">
        <ele>1114.79</ele>
        <time>2019-05-27T10:16:30Z</time>
      </trkpt>
      <trkpt lat="44.41587" lon="5.41552">
        <ele>1117.19</ele>
        <time>2019-05-27T10:17:00Z</time>
      </trkpt>
      <trkpt lat="44.41573" lon="5.41607">
        <ele>1121.03</ele>
        <time>2019-05-27T10:17:30Z</time>
      </trkpt>
      <trkpt lat="44.41562" lon="5.41666">
        <ele>1124.88</ele>
        <time>2019-05-27T10:18:00Z</time>
      </trkpt>
      <trkpt lat="44.41543" lon="5.41721">
        <ele>1128.73</ele>
        <time>2019-05-27T10:18:30Z</time>
      </trkpt>
      <trkpt lat="44.41527" lon="5.41783">
        <ele>1132.57</ele>
        <time>2019-05-27T10:19:00Z</time>
      </trkpt>
      <trkpt lat="44.41514" lon="5.41853">
        <ele>1137.38</ele>
        <time>2019-05-27T10:19:30Z</time>
      </trkpt>
      <trkpt lat="44.41502" lon="5.41908">
        <ele>1142.66</ele>
        <time>2019-05-27T10:20:00Z</time>
      </trkpt>
      <trkpt lat="44.41504" lon="5.41952">
        <ele>1147.47</ele>
        <time>2019-05-27T10:20:30Z</time>
      </trkpt>
      <trkpt lat="44.41502" lon="5.41953">
        <ele>1146.99</ele>
        <time>2019-05-27T10:21:00Z</time>
      </trkpt>
      <trkpt lat="44.41495" lon="5.41964">
        <ele>1146.03</ele>
        <time>2019-05-27T10:21:30Z</time>
      </trkpt>
      <trkpt lat="44.41476" lon="5.42003">
        <ele>1143.63</ele>
        <time>2019-05-27T10:22:00Z</time>
      </trkpt>
      <trkpt lat="44.41475" lon="5.42042">
        <ele>1143.63</ele>
        <time>2019-05-27T10:22:30Z</time>
      </trkpt>
      <trkpt lat="44.41473" lon="5.42099">
        <ele>1145.55</ele>
        <time>2019-05-27T10:23:00Z</time>
      </trkpt>
      <trkpt lat="44.41472" lon="5.42202">
        <ele>1145.07</ele>
        <time>2019-05-27T10:23:30Z</time>
      </trkpt>
      <trkpt lat="44.41455" lon="5.42307">
        <ele>1143.63</ele>
        <time>2019-05-27T10:24:00Z</time>
      </trkpt>
      <trkpt lat="44.41436" lon="5.42397">
        <ele>1144.11</ele>
        <time>2019-05-27T10:24:30Z</time>
      </trkpt>
      <trkpt lat="44.41391" lon="5.42511">
        <ele>1138.34</ele>
        <time>2019-05-27T10:25:00Z</time>
      </trkpt>
      <trkpt lat="44.41373" lon="5.42587">
        <ele>1139.78</ele>
        <time>2019-05-27T10:25:30Z</time>
      </trkpt>
      <trkpt lat="44.4137" lon="5.42615">
        <ele>1139.78</ele>
        <time>2019-05-27T10:26:00Z</time>
      </trkpt>
      <trkpt lat="44.41372" lon="5.42638">
        <ele>1139.78</ele>
        <time>2019-05-27T10:26:30Z</time>
      </trkpt>
      <trkpt lat="44.41358" lon="5.42685">
        <ele>1143.63</ele>
        <time>2019-05-27T10:27:00Z</time>
      </trkpt>
      <trkpt lat="44.4134" lon="5.42687">
        <ele>1146.03</ele>
        <time>2019-05-27T10:27:30Z</time>
      </trkpt>
      <trkpt lat="44.41325" lon="5.42694">
        <ele>1148.91</ele>
        <time>2019-05-27T10:28:00Z</time>
      </trkpt>
      <trkpt lat="44.41301" lon="5.42704">
        <ele>1150.84</ele>
        <time>2019-05-27T10:28:30Z</time>
      </trkpt>
      <trkpt lat="44.41207" lon="5.42715">
        <ele>1131.61</ele>
        <time>2019-05-27T10:29:00Z</time>
      </trkpt>
      <trkpt lat="44.41164" lon="5.42764">
        <ele>1117.67</ele>
        <time>2019-05-27T10:29:30Z</time>
      </trkpt>
      <trkpt lat="44.41097" lon="5.42773">
        <ele>1095.08</ele>
        <time>2019-05-27T10:30:00Z</time>
      </trkpt>
      <trkpt lat="44.40998" lon="5.42815">
        <ele>1075.37</ele>
        <time>2019-05-27T10:30:30Z</time>
      </trkpt>
      <trkpt lat="44.40882" lon="5.42854">
        <ele>1054.7</ele>
        <time>2019-05-27T10:31:00Z</time>
      </trkpt>
      <trkpt lat="44.40807" lon="5.42878">
        <ele>1035</ele>
        <time>2019-05-27T10:31:30Z</time>
      </trkpt>
      <trkpt lat="44.40747" lon="5.42913">
        <ele>1023.94</ele>
        <time>2019-05-27T10:32:00Z</time>
      </trkpt>
      <trkpt lat="44.40772" lon="5.42888">
        <ele>1026.83</ele>
        <time>2019-05-27T10:32:30Z</time>
      </trkpt>
      <trkpt lat="44.40782" lon="5.42879">
        <ele>1029.71</ele>
        <time>2019-05-27T10:33:00Z</time>
      </trkpt>
      <trkpt lat="44.408" lon="5.42879">
        <ele>1034.04</ele>
        <time>2019-05-27T10:33:30Z</time>
      </trkpt>
      <trkpt lat="44.40813" lon="5.42884">
        <ele>1035.96</ele>
        <time>2019-05-27T10:34:00Z</time>
      </trkpt>
      <trkpt lat="44.40827" lon="5.42876">
        <ele>1039.8</ele>
        <time>2019-05-27T10:34:30Z</time>
      </trkpt>
      <trkpt lat="44.40842" lon="5.42869">
        <ele>1043.65</ele>
        <time>2019-05-27T10:35:00Z</time>
      </trkpt>
      <trkpt lat="44.40849" lon="5.42865">
        <ele>1046.53</ele>
        <time>2019-05-27T10:35:30Z</time>
      </trkpt>
      <trkpt lat="44.40862" lon="5.4286">
        <ele>1050.38</ele>
        <time>2019-05-27T10:36:00Z</time>
      </trkpt>
      <trkpt lat="44.40875" lon="5.42851">
        <ele>1052.78</ele>
        <time>2019-05-27T10:36:30Z</time>
      </trkpt>
      <trkpt lat="44.40897" lon="5.42847">
        <ele>1057.59</ele>
        <time>2019-05-27T10:37:00Z</time>
      </trkpt>
      <trkpt lat="44.40916" lon="5.42844">
        <ele>1062.39</ele>
        <time>2019-05-27T10:37:30Z</time>
      </trkpt>
      <trkpt lat="44.40932" lon="5.42834">
        <ele>1067.2</ele>
        <time>2019-05-27T10:38:00Z</time>
      </trkpt>
      <trkpt lat="44.40962" lon="5.42827">
        <ele>1065.76</ele>
        <time>2019-05-27T10:38:30Z</time>
      </trkpt>
      <trkpt lat="44.40982" lon="5.42818">
        <ele>1071.05</ele>
        <time>2019-05-27T10:39:00Z</time>
      </trkpt>
      <trkpt lat="44.40993" lon="5.42817">
        <ele>1073.93</ele>
        <time>2019-05-27T10:39:30Z</time>
      </trkpt>
      <trkpt lat="44.41012" lon="5.42803">
        <ele>1078.74</ele>
        <time>2019-05-27T10:40:00Z</time>
      </trkpt>
      <trkpt lat="44.41039" lon="5.42777">
        <ele>1081.14</ele>
        <time>2019-05-27T10:40:30Z</time>
      </trkpt>
      <trkpt lat="44.41049" lon="5.42771">
        <ele>1083.06</ele>
        <time>2019-05-27T10:41:00Z</time>
      </trkpt>
      <trkpt lat="44.41068" lon="5.42771">
        <ele>1086.91</ele>
        <time>2019-05-27T10:41:30Z</time>
      </trkpt>
      <trkpt lat="44.41085" lon="5.42774">
        <ele>1091.23</ele>
        <time>2019-05-27T10:42:00Z</time>
      </trkpt>
      <trkpt lat="44.41092" lon="5.42775">
        <ele>1092.68</ele>
        <time>2019-05-27T10:42:30Z</time>
      </trkpt>
      <trkpt lat="44.41108" lon="5.42771">
        <ele>1097.96</ele>
        <time>2019-05-27T10:43:00Z</time>
      </trkpt>
      <trkpt lat="44.41115" lon="5.42767">
        <ele>1100.37</ele>
        <time>2019-05-27T10:43:30Z</time>
      </trkpt>
      <trkpt lat="44.41128" lon="5.42765">
        <ele>1105.17</ele>
        <time>2019-05-27T10:44:00Z</time>
      </trkpt>
      <trkpt lat="44.41134" lon="5.42765">
        <ele>1107.1</ele>
        <time>2019-05-27T10:44:30Z</time>
      </trkpt>
      <trkpt lat="44.41145" lon="5.42764">
        <ele>1110.94</ele>
        <time>2019-05-27T10:45:00Z</time>
      </trkpt>
      <trkpt lat="44.41158" lon="5.42765">
        <ele>1114.79</ele>
        <time>2019-05-27T10:45:30Z</time>
      </trkpt>
      <trkpt lat="44.41163" lon="5.42762">
        <ele>1117.19</ele>
        <time>2019-05-27T10:46:00Z</time>
      </trkpt>
      <trkpt lat="44.41176" lon="5.42738">
        <ele>1121.52</ele>
        <time>2019-05-27T10:46:30Z</time>
      </trkpt>
      <trkpt lat="44.41184" lon="5.42723">
        <ele>1123.44</ele>
        <time>2019-05-27T10:47:00Z</time>
      </trkpt>
      <trkpt lat="44.41197" lon="5.42714">
        <ele>1126.8</ele>
        <time>2019-05-27T10:47:30Z</time>
      </trkpt>
      <trkpt lat="44.41213" lon="5.42715">
        <ele>1131.61</ele>
        <time>2019-05-27T10:48:00Z</time>
      </trkpt>
      <trkpt lat="44.41223" lon="5.4272">
        <ele>1134.49</ele>
        <time>2019-05-27T10:48:30Z</time>
      </trkpt>
      <trkpt lat="44.41244" lon="5.42722">
        <ele>1137.38</ele>
        <time>2019-05-27T10:49:00Z</time>
      </trkpt>
      <trkpt lat="44.41265" lon="5.42718">
        <ele>1141.22</ele>
        <time>2019-05-27T10:49:30Z</time>
      </trkpt>
      <trkpt lat="44.41275" lon="5.42713">
        <ele>1143.14</ele>
        <time>2019-05-27T10:50:00Z</time>
      </trkpt>
      <trkpt lat="44.41297" lon="5.42703">
        <ele>1147.95</ele>
        <time>2019-05-27T10:50:30Z</time>
      </trkpt>
      <trkpt lat="44.4131" lon="5.427">
        <ele>1148.91</ele>
        <time>2019-05-27T10:51:00Z</time>
      </trkpt>
      <trkpt lat="44.41311" lon="5.42698">
        <ele>1148.91</ele>
        <time>2019-05-27T10:51:30Z</time>
      </trkpt>
      <trkpt lat="44.4137" lon="5.42593">
        <ele>1137.38</ele>
        <time>2019-05-27T10:52:00Z</time>
      </trkpt>
      <trkpt lat="44.41402" lon="5.4249">
        <ele>1136.42</ele>
        <time>2019-05-27T10:52:30Z</time>
      </trkpt>
      <trkpt lat="44.41426" lon="5.42421">
        <ele>1137.86</ele>
        <time>2019-05-27T10:53:00Z</time>
      </trkpt>
      <trkpt lat="44.41443" lon="5.42377">
        <ele>1143.14</ele>
        <time>2019-05-27T10:53:30Z</time>
      </trkpt>
      <trkpt lat="44.41458" lon="5.42276">
        <ele>1140.74</ele>
        <time>2019-05-27T10:54:00Z</time>
      </trkpt>
      <trkpt lat="44.4147" lon="5.42189">
        <ele>1141.7</ele>
        <time>2019-05-27T10:54:30Z</time>
      </trkpt>
      <trkpt lat="44.41471" lon="5.42102">
        <ele>1143.14</ele>
        <time>2019-05-27T10:55:00Z</time>
      </trkpt>
      <trkpt lat="44.41477" lon="5.41997">
        <ele>1140.26</ele>
        <time>2019-05-27T10:55:30Z</time>
      </trkpt>
      <trkpt lat="44.41502" lon="5.41901">
        <ele>1140.26</ele>
        <time>2019-05-27T10:56:00Z</time>
      </trkpt>
      <trkpt lat="44.41569" lon="5.41613">
        <ele>1123.92</ele>
        <time>2019-05-27T10:56:30Z</time>
      </trkpt>
      <trkpt lat="44.41612" lon="5.41446">
        <ele>1113.34</ele>
        <time>2019-05-27T10:57:00Z</time>
      </trkpt>
      <trkpt lat="44.41614" lon="5.41447">
        <ele>1112.38</ele>
        <time>2019-05-27T10:57:30Z</time>
      </trkpt>
      <trkpt lat="44.41612" lon="5.41446">
        <ele>1111.42</ele>
        <time>2019-05-27T10:58:00Z</time>
      </trkpt>
      <trkpt lat="44.4161" lon="5.41448">
        <ele>1111.42</ele>
        <time>2019-05-27T10:58:30Z</time>
      </trkpt>
      <trkpt lat="44.41611" lon="5.41448">
        <ele>1111.42</ele>
        <time>2019-05-27T10:59:00Z</time>
      </trkpt>
      <trkpt lat="44.41609" lon="5.41448">
        <ele>1111.42</ele>
        <time>2019-05-27T10:59:30Z</time>
      </trkpt>
      <trkpt lat="44.4161" lon="5.41446">
        <ele>1111.42</ele>
        <time>2019-05-27T11:00:00Z</time>
      </trkpt>
      <trkpt lat="44.41611" lon="5.41448">
        <ele>1112.38</ele>
        <time>2019-05-27T11:00:30Z</time>
      </trkpt>
      <trkpt lat="44.41611" lon="5.41447">
        <ele>1112.38</ele>
        <time>2019-05-27T11:01:00Z</time>
      </trkpt>
      <trkpt lat="44.41612" lon="5.41447">
        <ele>1112.38</ele>
        <time>2019-05-27T11:01:30Z</time>
      </trkpt>
      <trkpt lat="44.41612" lon="5.41444">
        <ele>1112.38</ele>
        <time>2019-05-27T11:02:00Z</time>
      </trkpt>
      <trkpt lat="44.41611" lon="5.41447">
        <ele>1112.38</ele>
        <time>2019-05-27T11:02:30Z</time>
      </trkpt>
      <trkpt lat="44.41612" lon="5.41447">
        <ele>1112.38</ele>
        <time>2019-05-27T11:03:00Z</time>
      </trkpt>
      <trkpt lat="44.41612" lon="5.41447">
        <ele>1112.38</ele>
        <time>2019-05-27T11:03:30Z</time>
      </trkpt>
      <trkpt lat="44.41612" lon="5.41446">
        <ele>1111.9</ele>
        <time>2019-05-27T11:04:00Z</time>
      </trkpt>
      <trkpt lat="44.41612" lon="5.41447">
        <ele>1111.9</ele>
        <time>2019-05-27T11:04:30Z</time>
      </trkpt>
      <trkpt lat="44.41613" lon="5.41447">
        <ele>1111.9</ele>
        <time>2019-05-27T11:05:00Z</time>
      </trkpt>
      <trkpt lat="44.41613" lon="5.41442">
        <ele>1111.42</ele>
        <time>2019-05-27T11:05:30Z</time>
      </trkpt>
      <trkpt lat="44.41612" lon="5.41442">
        <ele>1111.42</ele>
        <time>2019-05-27T11:06:00Z</time>
      </trkpt>
      <trkpt lat="44.41612" lon="5.41441">
        <ele>1111.42</ele>
        <time>2019-05-27T11:06:30Z</time>
      </trkpt>
      <trkpt lat="44.41611" lon="5.41441">
        <ele>1111.42</ele>
        <time>2019-05-27T11:07:00Z</time>
      </trkpt>
      <trkpt lat="44.41612" lon="5.41441">
        <ele>1111.42</ele>
        <time>2019-05-27T11:07:30Z</time>
      </trkpt>
      <trkpt lat="44.41613" lon="5.41441">
        <ele>1110.94</ele>
        <time>2019-05-27T11:08:00Z</time>
      </trkpt>
      <trkpt lat="44.41613" lon="5.41441">
        <ele>1111.9</ele>
        <time>2019-05-27T11:08:30Z</time>
      </trkpt>
      <trkpt lat="44.41613" lon="5.41441">
        <ele>1111.9</ele>
        <time>2019-05-27T11:09:00Z</time>
      </trkpt>
      <trkpt lat="44.41614" lon="5.4144">
        <ele>1111.9</ele>
        <time>2019-05-27T11:09:30Z</time>
      </trkpt>
      <trkpt lat="44.41615" lon="5.4144">
        <ele>1111.9</ele>
        <time>2019-05-27T11:10:00Z</time>
      </trkpt>
      <trkpt lat="44.41615" lon="5.4144">
        <ele>1111.9</ele>
        <time>2019-05-27T11:10:30Z</time>
      </trkpt>
      <trkpt lat="44.41614" lon="5.41441">
        <ele>1111.42</ele>
        <time>2019-05-27T11:11:00Z</time>
      </trkpt>
      <trkpt lat="44.41613" lon="5.41441">
        <ele>1111.42</ele>
        <time>2019-05-27T11:11:30Z</time>
      </trkpt>
      <trkpt lat="44.41612" lon="5.41441">
        <ele>1111.42</ele>
        <time>2019-05-27T11:12:00Z</time>
      </trkpt>
      <trkpt lat="44.41613" lon="5.41441">
        <ele>1111.42</ele>
        <time>2019-05-27T11:12:30Z</time>
      </trkpt>
      <trkpt lat="44.41613" lon="5.41441">
        <ele>1111.42</ele>
        <time>2019-05-27T11:13:00Z</time>
      </trkpt>
      <trkpt lat="44.41613" lon="5.41442">
        <ele>1111.42</ele>
        <time>2019-05-27T11:13:30Z</time>
      </trkpt>
      <trkpt lat="44.41613" lon="5.41442">
        <ele>1111.42</ele>
        <time>2019-05-27T11:14:00Z</time>
      </trkpt>
      <trkpt lat="44.41613" lon="5.41446">
        <ele>1111.42</ele>
        <time>2019-05-27T11:14:30Z</time>
      </trkpt>
      <trkpt lat="44.41612" lon="5.41446">
        <ele>1111.9</ele>
        <time>2019-05-27T11:15:00Z</time>
      </trkpt>
      <trkpt lat="44.41613" lon="5.41447">
        <ele>1111.42</ele>
        <time>2019-05-27T11:15:30Z</time>
      </trkpt>
      <trkpt lat="44.41597" lon="5.41394">
        <ele>1108.06</ele>
        <time>2019-05-27T11:16:00Z</time>
      </trkpt>
      <trkpt lat="44.41505" lon="5.4133">
        <ele>1089.31</ele>
        <time>2019-05-27T11:16:30Z</time>
      </trkpt>
      <trkpt lat="44.41403" lon="5.41226">
        <ele>1073.45</ele>
        <time>2019-05-27T11:17:00Z</time>
      </trkpt>
      <trkpt lat="44.4132" lon="5.41133">
        <ele>1060.47</ele>
        <time>2019-05-27T11:17:30Z</time>
      </trkpt>
      <trkpt lat="44.41259" lon="5.41036">
        <ele>1047.49</ele>
        <time>2019-05-27T11:18:00Z</time>
      </trkpt>
      <trkpt lat="44.4115" lon="5.40893">
        <ele>1030.67</ele>
        <time>2019-05-27T11:18:30Z</time>
      </trkpt>
      <trkpt lat="44.41036" lon="5.40734">
        <ele>1010.96</ele>
        <time>2019-05-27T11:19:00Z</time>
      </trkpt>
      <trkpt lat="44.40932" lon="5.40551">
        <ele>991.74</ele>
        <time>2019-05-27T11:19:30Z</time>
      </trkpt>
      <trkpt lat="44.40881" lon="5.40379">
        <ele>973.47</ele>
        <time>2019-05-27T11:20:00Z</time>
      </trkpt>
      <trkpt lat="44.40838" lon="5.40185">
        <ele>957.13</ele>
        <time>2019-05-27T11:20:30Z</time>
      </trkpt>
      <trkpt lat="44.40796" lon="5.40021">
        <ele>946.56</ele>
        <time>2019-05-27T11:21:00Z</time>
      </trkpt>
      <trkpt lat="44.40796" lon="5.3986">
        <ele>935.98</ele>
        <time>2019-05-27T11:21:30Z</time>
      </trkpt>
      <trkpt lat="44.4077" lon="5.39783">
        <ele>924.93</ele>
        <time>2019-05-27T11:22:00Z</time>
      </trkpt>
      <trkpt lat="44.40767" lon="5.39784">
        <ele>923.48</ele>
        <time>2019-05-27T11:22:30Z</time>
      </trkpt>
      <trkpt lat="44.40767" lon="5.39786">
        <ele>923.48</ele>
        <time>2019-05-27T11:23:00Z</time>
      </trkpt>
      <trkpt lat="44.40767" lon="5.39786">
        <ele>923.48</ele>
        <time>2019-05-27T11:23:30Z</time>
      </trkpt>
      <trkpt lat="44.40767" lon="5.39786">
        <ele>923.48</ele>
        <time>2019-05-27T11:24:00Z</time>
      </trkpt>
      <trkpt lat="44.40767" lon="5.39786">
        <ele>924.45</ele>
        <time>2019-05-27T11:24:30Z</time>
      </trkpt>
      <trkpt lat="44.40766" lon="5.39789">
        <ele>924.45</ele>
        <time>2019-05-27T11:25:00Z</time>
      </trkpt>
      <trkpt lat="44.40765" lon="5.3979">
        <ele>924.45</ele>
        <time>2019-05-27T11:25:30Z</time>
      </trkpt>
      <trkpt lat="44.40768" lon="5.39783">
        <ele>924.45</ele>
        <time>2019-05-27T11:26:00Z</time>
      </trkpt>
      <trkpt lat="44.40727" lon="5.39765">
        <ele>913.87</ele>
        <time>2019-05-27T11:26:30Z</time>
      </trkpt>
      <trkpt lat="44.40675" lon="5.39726">
        <ele>898.49</ele>
        <time>2019-05-27T11:27:00Z</time>
      </trkpt>
      <trkpt lat="44.40627" lon="5.39742">
        <ele>885.99</ele>
        <time>2019-05-27T11:27:30Z</time>
      </trkpt>
      <trkpt lat="44.40573" lon="5.39687">
        <ele>872.05</ele>
        <time>2019-05-27T11:28:00Z</time>
      </trkpt>
      <trkpt lat="44.40523" lon="5.39625">
        <ele>859.08</ele>
        <time>2019-05-27T11:28:30Z</time>
      </trkpt>
      <trkpt lat="44.40493" lon="5.39539">
        <ele>843.69</ele>
        <time>2019-05-27T11:29:00Z</time>
      </trkpt>
      <trkpt lat="44.40487" lon="5.39488">
        <ele>833.12</ele>
        <time>2019-05-27T11:29:30Z</time>
      </trkpt>
      <trkpt lat="44.40471" lon="5.39458">
        <ele>826.87</ele>
        <time>2019-05-27T11:30:00Z</time>
      </trkpt>
      <trkpt lat="44.40423" lon="5.39396">
        <ele>815.82</ele>
        <time>2019-05-27T11:30:30Z</time>
      </trkpt>
      <trkpt lat="44.40367" lon="5.394">
        <ele>800.92</ele>
        <time>2019-05-27T11:31:00Z</time>
      </trkpt>
      <trkpt lat="44.40378" lon="5.39334">
        <ele>790.82</ele>
        <time>2019-05-27T11:31:30Z</time>
      </trkpt>
      <trkpt lat="44.40401" lon="5.39326">
        <ele>792.26</ele>
        <time>2019-05-27T11:32:00Z</time>
      </trkpt>
      <trkpt lat="44.40422" lon="5.3931">
        <ele>793.71</ele>
        <time>2019-05-27T11:32:30Z</time>
      </trkpt>
      <trkpt lat="44.40414" lon="5.39277">
        <ele>795.63</ele>
        <time>2019-05-27T11:33:00Z</time>
      </trkpt>
      <trkpt lat="44.4041" lon="5.39222">
        <ele>798.03</ele>
        <time>2019-05-27T11:33:30Z</time>
      </trkpt>
      <trkpt lat="44.40413" lon="5.39205">
        <ele>799.47</ele>
        <time>2019-05-27T11:34:00Z</time>
      </trkpt>
      <trkpt lat="44.40412" lon="5.39188">
        <ele>801.88</ele>
        <time>2019-05-27T11:34:30Z</time>
      </trkpt>
      <trkpt lat="44.40411" lon="5.39173">
        <ele>803.32</ele>
        <time>2019-05-27T11:35:00Z</time>
      </trkpt>
      <trkpt lat="44.40406" lon="5.39179">
        <ele>803.32</ele>
        <time>2019-05-27T11:35:30Z</time>
      </trkpt>
      <trkpt lat="44.40409" lon="5.39179">
        <ele>803.32</ele>
        <time>2019-05-27T11:36:00Z</time>
      </trkpt>
      <trkpt lat="44.40411" lon="5.39179">
        <ele>803.32</ele>
        <time>2019-05-27T11:36:30Z</time>
      </trkpt>
      <trkpt lat="44.40409" lon="5.39172">
        <ele>803.32</ele>
        <time>2019-05-27T11:37:00Z</time>
      </trkpt>
      <trkpt lat="44.40406" lon="5.39176">
        <ele>803.32</ele>
        <time>2019-05-27T11:37:30Z</time>
      </trkpt>
      <trkpt lat="44.40404" lon="5.39176">
        <ele>803.32</ele>
        <time>2019-05-27T11:38:00Z</time>
      </trkpt>
      <trkpt lat="44.40402" lon="5.39175">
        <ele>803.32</ele>
        <time>2019-05-27T11:38:30Z</time>
      </trkpt>
      <trkpt lat="44.40406" lon="5.39173">
        <ele>803.8</ele>
        <time>2019-05-27T11:39:00Z</time>
      </trkpt>
      <trkpt lat="44.40409" lon="5.3918">
        <ele>804.28</ele>
        <time>2019-05-27T11:39:30Z</time>
      </trkpt>
      <trkpt lat="44.4042" lon="5.39306">
        <ele>793.71</ele>
        <time>2019-05-27T11:40:00Z</time>
      </trkpt>
      <trkpt lat="44.4042" lon="5.39305">
        <ele>793.71</ele>
        <time>2019-05-27T11:40:30Z</time>
      </trkpt>
      <trkpt lat="44.4043" lon="5.39325">
        <ele>794.67</ele>
        <time>2019-05-27T11:41:00Z</time>
      </trkpt>
      <trkpt lat="44.40453" lon="5.3934">
        <ele>798.03</ele>
        <time>2019-05-27T11:41:30Z</time>
      </trkpt>
      <trkpt lat="44.40471" lon="5.39353">
        <ele>799.47</ele>
        <time>2019-05-27T11:42:00Z</time>
      </trkpt>
      <trkpt lat="44.40495" lon="5.39367">
        <ele>803.32</ele>
        <time>2019-05-27T11:42:30Z</time>
      </trkpt>
      <trkpt lat="44.40489" lon="5.39353">
        <ele>805.72</ele>
        <time>2019-05-27T11:43:00Z</time>
      </trkpt>
      <trkpt lat="44.40475" lon="5.39316">
        <ele>809.57</ele>
        <time>2019-05-27T11:43:30Z</time>
      </trkpt>
      <trkpt lat="44.40458" lon="5.39271">
        <ele>811.97</ele>
        <time>2019-05-27T11:44:00Z</time>
      </trkpt>
      <trkpt lat="44.40448" lon="5.39218">
        <ele>814.37</ele>
        <time>2019-05-27T11:44:30Z</time>
      </trkpt>
      <trkpt lat="44.40442" lon="5.39167">
        <ele>818.22</ele>
        <time>2019-05-27T11:45:00Z</time>
      </trkpt>
      <trkpt lat="44.40446" lon="5.39105">
        <ele>821.1</ele>
        <time>2019-05-27T11:45:30Z</time>
      </trkpt>
      <trkpt lat="44.4044" lon="5.39053">
        <ele>823.51</ele>
        <time>2019-05-27T11:46:00Z</time>
      </trkpt>
      <trkpt lat="44.40431" lon="5.38997">
        <ele>827.35</ele>
        <time>2019-05-27T11:46:30Z</time>
      </trkpt>
      <trkpt lat="44.40415" lon="5.38945">
        <ele>829.76</ele>
        <time>2019-05-27T11:47:00Z</time>
      </trkpt>
      <trkpt lat="44.40404" lon="5.38899">
        <ele>833.12</ele>
        <time>2019-05-27T11:47:30Z</time>
      </trkpt>
      <trkpt lat="44.4042" lon="5.389">
        <ele>835.52</ele>
        <time>2019-05-27T11:48:00Z</time>
      </trkpt>
      <trkpt lat="44.40445" lon="5.38944">
        <ele>838.41</ele>
        <time>2019-05-27T11:48:30Z</time>
      </trkpt>
      <trkpt lat="44.40457" lon="5.38966">
        <ele>840.33</ele>
        <time>2019-05-27T11:49:00Z</time>
      </trkpt>
      <trkpt lat="44.40483" lon="5.39011">
        <ele>844.18</ele>
        <time>2019-05-27T11:49:30Z</time>
      </trkpt>
      <trkpt lat="44.40507" lon="5.3906">
        <ele>847.06</ele>
        <time>2019-05-27T11:50:00Z</time>
      </trkpt>
      <trkpt lat="44.40532" lon="5.391">
        <ele>849.94</ele>
        <time>2019-05-27T11:50:30Z</time>
      </trkpt>
      <trkpt lat="44.40558" lon="5.39155">
        <ele>852.83</ele>
        <time>2019-05-27T11:51:00Z</time>
      </trkpt>
      <trkpt lat="44.40586" lon="5.39187">
        <ele>856.67</ele>
        <time>2019-05-27T11:51:30Z</time>
      </trkpt>
      <trkpt lat="44.40614" lon="5.39223">
        <ele>859.08</ele>
        <time>2019-05-27T11:52:00Z</time>
      </trkpt>
      <trkpt lat="44.40643" lon="5.39256">
        <ele>861.96</ele>
        <time>2019-05-27T11:52:30Z</time>
      </trkpt>
      <trkpt lat="44.40673" lon="5.39281">
        <ele>864.84</ele>
        <time>2019-05-27T11:53:00Z</time>
      </trkpt>
      <trkpt lat="44.40674" lon="5.39279">
        <ele>865.8</ele>
        <time>2019-05-27T11:53:30Z</time>
      </trkpt>
      <trkpt lat="44.4066" lon="5.39254">
        <ele>868.21</ele>
        <time>2019-05-27T11:54:00Z</time>
      </trkpt>
      <trkpt lat="44.40645" lon="5.392">
        <ele>872.05</ele>
        <time>2019-05-27T11:54:30Z</time>
      </trkpt>
      <trkpt lat="44.40624" lon="5.39152">
        <ele>875.42</ele>
        <time>2019-05-27T11:55:00Z</time>
      </trkpt>
      <trkpt lat="44.40611" lon="5.3911">
        <ele>878.78</ele>
        <time>2019-05-27T11:55:30Z</time>
      </trkpt>
      <trkpt lat="44.40612" lon="5.39087">
        <ele>880.22</ele>
        <time>2019-05-27T11:56:00Z</time>
      </trkpt>
      <trkpt lat="44.40613" lon="5.3905">
        <ele>883.11</ele>
        <time>2019-05-27T11:56:30Z</time>
      </trkpt>
      <trkpt lat="44.40609" lon="5.39016">
        <ele>885.99</ele>
        <time>2019-05-27T11:57:00Z</time>
      </trkpt>
      <trkpt lat="44.40594" lon="5.38964">
        <ele>889.84</ele>
        <time>2019-05-27T11:57:30Z</time>
      </trkpt>
      <trkpt lat="44.40595" lon="5.38912">
        <ele>893.68</ele>
        <time>2019-05-27T11:58:00Z</time>
      </trkpt>
      <trkpt lat="44.40598" lon="5.38863">
        <ele>896.09</ele>
        <time>2019-05-27T11:58:30Z</time>
      </trkpt>
      <trkpt lat="44.40611" lon="5.38814">
        <ele>898.97</ele>
        <time>2019-05-27T11:59:00Z</time>
      </trkpt>
      <trkpt lat="44.40618" lon="5.3876">
        <ele>902.33</ele>
        <time>2019-05-27T11:59:30Z</time>
      </trkpt>
      <trkpt lat="44.40621" lon="5.38703">
        <ele>906.66</ele>
        <time>2019-05-27T12:00:00Z</time>
      </trkpt>
      <trkpt lat="44.4062" lon="5.38669">
        <ele>908.58</ele>
        <time>2019-05-27T12:00:30Z</time>
      </trkpt>
      <trkpt lat="44.40625" lon="5.38619">
        <ele>912.43</ele>
        <time>2019-05-27T12:01:00Z</time>
      </trkpt>
      <trkpt lat="44.40638" lon="5.38665">
        <ele>915.31</ele>
        <time>2019-05-27T12:01:30Z</time>
      </trkpt>
      <trkpt lat="44.40653" lon="5.3871">
        <ele>918.2</ele>
        <time>2019-05-27T12:02:00Z</time>
      </trkpt>
      <trkpt lat="44.40662" lon="5.3876">
        <ele>920.6</ele>
        <time>2019-05-27T12:02:30Z</time>
      </trkpt>
      <trkpt lat="44.40675" lon="5.38808">
        <ele>924.45</ele>
        <time>2019-05-27T12:03:00Z</time>
      </trkpt>
      <trkpt lat="44.40687" lon="5.38857">
        <ele>926.85</ele>
        <time>2019-05-27T12:03:30Z</time>
      </trkpt>
      <trkpt lat="44.40691" lon="5.38868">
        <ele>929.73</ele>
        <time>2019-05-27T12:04:00Z</time>
      </trkpt>
      <trkpt lat="44.40691" lon="5.38866">
        <ele>929.73</ele>
        <time>2019-05-27T12:04:30Z</time>
      </trkpt>
      <trkpt lat="44.40694" lon="5.3886">
        <ele>929.73</ele>
        <time>2019-05-27T12:05:00Z</time>
      </trkpt>
      <trkpt lat="44.40692" lon="5.38845">
        <ele>930.69</ele>
        <time>2019-05-27T12:05:30Z</time>
      </trkpt>
      <trkpt lat="44.40693" lon="5.38789">
        <ele>934.06</ele>
        <time>2019-05-27T12:06:00Z</time>
      </trkpt>
      <trkpt lat="44.40694" lon="5.38728">
        <ele>936.46</ele>
        <time>2019-05-27T12:06:30Z</time>
      </trkpt>
      <trkpt lat="44.40688" lon="5.3864">
        <ele>937.42</ele>
        <time>2019-05-27T12:07:00Z</time>
      </trkpt>
      <trkpt lat="44.40687" lon="5.38554">
        <ele>937.9</ele>
        <time>2019-05-27T12:07:30Z</time>
      </trkpt>
      <trkpt lat="44.407" lon="5.3854">
        <ele>936.46</ele>
        <time>2019-05-27T12:08:00Z</time>
      </trkpt>
      <trkpt lat="44.4073" lon="5.38535">
        <ele>935.98</ele>
        <time>2019-05-27T12:08:30Z</time>
      </trkpt>
      <trkpt lat="44.4075" lon="5.3853">
        <ele>934.06</ele>
        <time>2019-05-27T12:09:00Z</time>
      </trkpt>
      <trkpt lat="44.40775" lon="5.38519">
        <ele>934.54</ele>
        <time>2019-05-27T12:09:30Z</time>
      </trkpt>
      <trkpt lat="44.40803" lon="5.38519">
        <ele>935.98</ele>
        <time>2019-05-27T12:10:00Z</time>
      </trkpt>
      <trkpt lat="44.4082" lon="5.38508">
        <ele>937.42</ele>
        <time>2019-05-27T12:10:30Z</time>
      </trkpt>
      <trkpt lat="44.40839" lon="5.38478">
        <ele>937.9</ele>
        <time>2019-05-27T12:11:00Z</time>
      </trkpt>
      <trkpt lat="44.40863" lon="5.38459">
        <ele>940.31</ele>
        <time>2019-05-27T12:11:30Z</time>
      </trkpt>
      <trkpt lat="44.40899" lon="5.38436">
        <ele>943.67</ele>
        <time>2019-05-27T12:12:00Z</time>
      </trkpt>
      <trkpt lat="44.40922" lon="5.38421">
        <ele>946.07</ele>
        <time>2019-05-27T12:12:30Z</time>
      </trkpt>
      <trkpt lat="44.40926" lon="5.3842">
        <ele>948</ele>
        <time>2019-05-27T12:13:00Z</time>
      </trkpt>
      <trkpt lat="44.40912" lon="5.38442">
        <ele>949.44</ele>
        <time>2019-05-27T12:13:30Z</time>
      </trkpt>
      <trkpt lat="44.40884" lon="5.38468">
        <ele>952.32</ele>
        <time>2019-05-27T12:14:00Z</time>
      </trkpt>
      <trkpt lat="44.40861" lon="5.38489">
        <ele>953.77</ele>
        <time>2019-05-27T12:14:30Z</time>
      </trkpt>
      <trkpt lat="44.40869" lon="5.38489">
        <ele>956.65</ele>
        <time>2019-05-27T12:15:00Z</time>
      </trkpt>
      <trkpt lat="44.40892" lon="5.38473">
        <ele>958.09</ele>
        <time>2019-05-27T12:15:30Z</time>
      </trkpt>
      <trkpt lat="44.40922" lon="5.38455">
        <ele>960.98</ele>
        <time>2019-05-27T12:16:00Z</time>
      </trkpt>
      <trkpt lat="44.40947" lon="5.38443">
        <ele>963.38</ele>
        <time>2019-05-27T12:16:30Z</time>
      </trkpt>
      <trkpt lat="44.4095" lon="5.3844">
        <ele>963.38</ele>
        <time>2019-05-27T12:17:00Z</time>
      </trkpt>
      <trkpt lat="44.40976" lon="5.38423">
        <ele>966.74</ele>
        <time>2019-05-27T12:17:30Z</time>
      </trkpt>
      <trkpt lat="44.41002" lon="5.38407">
        <ele>967.7</ele>
        <time>2019-05-27T12:18:00Z</time>
      </trkpt>
      <trkpt lat="44.41033" lon="5.38387">
        <ele>970.11</ele>
        <time>2019-05-27T12:18:30Z</time>
      </trkpt>
      <trkpt lat="44.41051" lon="5.38382">
        <ele>973.47</ele>
        <time>2019-05-27T12:19:00Z</time>
      </trkpt>
      <trkpt lat="44.41029" lon="5.3841">
        <ele>976.84</ele>
        <time>2019-05-27T12:19:30Z</time>
      </trkpt>
      <trkpt lat="44.41001" lon="5.38434">
        <ele>978.28</ele>
        <time>2019-05-27T12:20:00Z</time>
      </trkpt>
      <trkpt lat="44.41018" lon="5.3843">
        <ele>980.68</ele>
        <time>2019-05-27T12:20:30Z</time>
      </trkpt>
      <trkpt lat="44.41031" lon="5.38423">
        <ele>982.12</ele>
        <time>2019-05-27T12:21:00Z</time>
      </trkpt>
      <trkpt lat="44.41071" lon="5.38417">
        <ele>985.01</ele>
        <time>2019-05-27T12:21:30Z</time>
      </trkpt>
      <trkpt lat="44.41104" lon="5.38404">
        <ele>987.89</ele>
        <time>2019-05-27T12:22:00Z</time>
      </trkpt>
      <trkpt lat="44.41142" lon="5.38391">
        <ele>990.78</ele>
        <time>2019-05-27T12:22:30Z</time>
      </trkpt>
      <trkpt lat="44.41178" lon="5.38397">
        <ele>993.18</ele>
        <time>2019-05-27T12:23:00Z</time>
      </trkpt>
      <trkpt lat="44.41212" lon="5.38378">
        <ele>996.54</ele>
        <time>2019-05-27T12:23:30Z</time>
      </trkpt>
      <trkpt lat="44.41241" lon="5.38346">
        <ele>998.95</ele>
        <time>2019-05-27T12:24:00Z</time>
      </trkpt>
      <trkpt lat="44.41255" lon="5.38334">
        <ele>1001.83</ele>
        <time>2019-05-27T12:24:30Z</time>
      </trkpt>
      <trkpt lat="44.41246" lon="5.3838">
        <ele>1003.75</ele>
        <time>2019-05-27T12:25:00Z</time>
      </trkpt>
      <trkpt lat="44.41221" lon="5.38417">
        <ele>1006.16</ele>
        <time>2019-05-27T12:25:30Z</time>
      </trkpt>
      <trkpt lat="44.41203" lon="5.38429">
        <ele>1007.6</ele>
        <time>2019-05-27T12:26:00Z</time>
      </trkpt>
      <trkpt lat="44.41199" lon="5.38431">
        <ele>1008.08</ele>
        <time>2019-05-27T12:26:30Z</time>
      </trkpt>
      <trkpt lat="44.41171" lon="5.38463">
        <ele>1011.44</ele>
        <time>2019-05-27T12:27:00Z</time>
      </trkpt>
      <trkpt lat="44.41162" lon="5.38475">
        <ele>1014.33</ele>
        <time>2019-05-27T12:27:30Z</time>
      </trkpt>
      <trkpt lat="44.41185" lon="5.38471">
        <ele>1016.25</ele>
        <time>2019-05-27T12:28:00Z</time>
      </trkpt>
      <trkpt lat="44.41211" lon="5.38449">
        <ele>1018.17</ele>
        <time>2019-05-27T12:28:30Z</time>
      </trkpt>
      <trkpt lat="44.41225" lon="5.38441">
        <ele>1019.13</ele>
        <time>2019-05-27T12:29:00Z</time>
      </trkpt>
      <trkpt lat="44.41226" lon="5.38442">
        <ele>1019.13</ele>
        <time>2019-05-27T12:29:30Z</time>
      </trkpt>
      <trkpt lat="44.41239" lon="5.38447">
        <ele>1022.5</ele>
        <time>2019-05-27T12:30:00Z</time>
      </trkpt>
      <trkpt lat="44.4126" lon="5.38455">
        <ele>1025.86</ele>
        <time>2019-05-27T12:30:30Z</time>
      </trkpt>
      <trkpt lat="44.41299" lon="5.38437">
        <ele>1025.86</ele>
        <time>2019-05-27T12:31:00Z</time>
      </trkpt>
      <trkpt lat="44.4133" lon="5.38383">
        <ele>1029.23</ele>
        <time>2019-05-27T12:31:30Z</time>
      </trkpt>
      <trkpt lat="44.41366" lon="5.38359">
        <ele>1033.07</ele>
        <time>2019-05-27T12:32:00Z</time>
      </trkpt>
      <trkpt lat="44.41414" lon="5.38361">
        <ele>1035.48</ele>
        <time>2019-05-27T12:32:30Z</time>
      </trkpt>
      <trkpt lat="44.41463" lon="5.3836">
        <ele>1038.84</ele>
        <time>2019-05-27T12:33:00Z</time>
      </trkpt>
      <trkpt lat="44.41511" lon="5.38367">
        <ele>1041.25</ele>
        <time>2019-05-27T12:33:30Z</time>
      </trkpt>
      <trkpt lat="44.41572" lon="5.38365">
        <ele>1041.73</ele>
        <time>2019-05-27T12:34:00Z</time>
      </trkpt>
      <trkpt lat="44.41652" lon="5.38382">
        <ele>1041.25</ele>
        <time>2019-05-27T12:34:30Z</time>
      </trkpt>
      <trkpt lat="44.41787" lon="5.38419">
        <ele>1035.48</ele>
        <time>2019-05-27T12:35:00Z</time>
      </trkpt>
      <trkpt lat="44.41914" lon="5.38443">
        <ele>1034.52</ele>
        <time>2019-05-27T12:35:30Z</time>
      </trkpt>
      <trkpt lat="44.41952" lon="5.38465">
        <ele>1038.84</ele>
        <time>2019-05-27T12:36:00Z</time>
      </trkpt>
      <trkpt lat="44.41986" lon="5.38464">
        <ele>1042.69</ele>
        <time>2019-05-27T12:36:30Z</time>
      </trkpt>
      <trkpt lat="44.41999" lon="5.38426">
        <ele>1046.53</ele>
        <time>2019-05-27T12:37:00Z</time>
      </trkpt>
      <trkpt lat="44.41999" lon="5.38379">
        <ele>1049.42</ele>
        <time>2019-05-27T12:37:30Z</time>
      </trkpt>
      <trkpt lat="44.42012" lon="5.38331">
        <ele>1052.78</ele>
        <time>2019-05-27T12:38:00Z</time>
      </trkpt>
      <trkpt lat="44.42036" lon="5.38302">
        <ele>1056.63</ele>
        <time>2019-05-27T12:38:30Z</time>
      </trkpt>
      <trkpt lat="44.42034" lon="5.38324">
        <ele>1059.51</ele>
        <time>2019-05-27T12:39:00Z</time>
      </trkpt>
      <trkpt lat="44.42037" lon="5.38361">
        <ele>1063.84</ele>
        <time>2019-05-27T12:39:30Z</time>
      </trkpt>
      <trkpt lat="44.4205" lon="5.38399">
        <ele>1067.2</ele>
        <time>2019-05-27T12:40:00Z</time>
      </trkpt>
      <trkpt lat="44.42066" lon="5.38433">
        <ele>1070.08</ele>
        <time>2019-05-27T12:40:30Z</time>
      </trkpt>
      <trkpt lat="44.42079" lon="5.38468">
        <ele>1073.93</ele>
        <time>2019-05-27T12:41:00Z</time>
      </trkpt>
      <trkpt lat="44.42089" lon="5.38495">
        <ele>1075.37</ele>
        <time>2019-05-27T12:41:30Z</time>
      </trkpt>
      <trkpt lat="44.42096" lon="5.38544">
        <ele>1080.18</ele>
        <time>2019-05-27T12:42:00Z</time>
      </trkpt>
      <trkpt lat="44.42095" lon="5.38598">
        <ele>1083.06</ele>
        <time>2019-05-27T12:42:30Z</time>
      </trkpt>
      <trkpt lat="44.42109" lon="5.38636">
        <ele>1085.47</ele>
        <time>2019-05-27T12:43:00Z</time>
      </trkpt>
      <trkpt lat="44.4211" lon="5.38638">
        <ele>1083.54</ele>
        <time>2019-05-27T12:43:30Z</time>
      </trkpt>
      <trkpt lat="44.42178" lon="5.38839">
        <ele>1070.08</ele>
        <time>2019-05-27T12:44:00Z</time>
      </trkpt>
      <trkpt lat="44.42266" lon="5.39142">
        <ele>1037.88</ele>
        <time>2019-05-27T12:44:30Z</time>
      </trkpt>
      <trkpt lat="44.42294" lon="5.38971">
        <ele>1016.25</ele>
        <time>2019-05-27T12:45:00Z</time>
      </trkpt>
      <trkpt lat="44.42332" lon="5.39011">
        <ele>1000.87</ele>
        <time>2019-05-27T12:45:30Z</time>
      </trkpt>
      <trkpt lat="44.42427" lon="5.39359">
        <ele>968.18</ele>
        <time>2019-05-27T12:46:00Z</time>
      </trkpt>
      <trkpt lat="44.42478" lon="5.39214">
        <ele>945.59</ele>
        <time>2019-05-27T12:46:30Z</time>
      </trkpt>
      <trkpt lat="44.42475" lon="5.39067">
        <ele>925.89</ele>
        <time>2019-05-27T12:47:00Z</time>
      </trkpt>
      <trkpt lat="44.42554" lon="5.39191">
        <ele>905.22</ele>
        <time>2019-05-27T12:47:30Z</time>
      </trkpt>
      <trkpt lat="44.4263" lon="5.39023">
        <ele>881.67</ele>
        <time>2019-05-27T12:48:00Z</time>
      </trkpt>
      <trkpt lat="44.42717" lon="5.38912">
        <ele>858.11</ele>
        <time>2019-05-27T12:48:30Z</time>
      </trkpt>
      <trkpt lat="44.42748" lon="5.38902">
        <ele>842.25</ele>
        <time>2019-05-27T12:49:00Z</time>
      </trkpt>
      <trkpt lat="44.42801" lon="5.38946">
        <ele>822.55</ele>
        <time>2019-05-27T12:49:30Z</time>
      </trkpt>
      <trkpt lat="44.42873" lon="5.38887">
        <ele>800.92</ele>
        <time>2019-05-27T12:50:00Z</time>
      </trkpt>
      <trkpt lat="44.42906" lon="5.38913">
        <ele>785.53</ele>
        <time>2019-05-27T12:50:30Z</time>
      </trkpt>
      <trkpt lat="44.42891" lon="5.391">
        <ele>762.46</ele>
        <time>2019-05-27T12:51:00Z</time>
      </trkpt>
      <trkpt lat="44.43001" lon="5.38895">
        <ele>738.91</ele>
        <time>2019-05-27T12:51:30Z</time>
      </trkpt>
      <trkpt lat="44.43088" lon="5.38728">
        <ele>718.72</ele>
        <time>2019-05-27T12:52:00Z</time>
      </trkpt>
      <trkpt lat="44.4308" lon="5.38457">
        <ele>691.33</ele>
        <time>2019-05-27T12:52:30Z</time>
      </trkpt>
      <trkpt lat="44.43091" lon="5.38364">
        <ele>670.18</ele>
        <time>2019-05-27T12:53:00Z</time>
      </trkpt>
      <trkpt lat="44.43166" lon="5.3812">
        <ele>654.8</ele>
        <time>2019-05-27T12:53:30Z</time>
      </trkpt>
      <trkpt lat="44.43258" lon="5.37828">
        <ele>630.76</ele>
        <time>2019-05-27T12:54:00Z</time>
      </trkpt>
      <trkpt lat="44.43274" lon="5.37568">
        <ele>603.36</ele>
        <time>2019-05-27T12:54:30Z</time>
      </trkpt>
      <trkpt lat="44.4344" lon="5.37638">
        <ele>586.54</ele>
        <time>2019-05-27T12:55:00Z</time>
      </trkpt>
      <trkpt lat="44.43591" lon="5.37394">
        <ele>553.38</ele>
        <time>2019-05-27T12:55:30Z</time>
      </trkpt>
      <trkpt lat="44.4364" lon="5.3719">
        <ele>530.3</ele>
        <time>2019-05-27T12:56:00Z</time>
      </trkpt>
      <trkpt lat="44.4365" lon="5.36934">
        <ele>503.87</ele>
        <time>2019-05-27T12:56:30Z</time>
      </trkpt>
      <trkpt lat="44.43647" lon="5.3691">
        <ele>501.95</ele>
        <time>2019-05-27T12:57:00Z</time>
      </trkpt>
      <trkpt lat="44.43647" lon="5.3691">
        <ele>500.5</ele>
        <time>2019-05-27T12:57:30Z</time>
      </trkpt>
      <trkpt lat="44.43582" lon="5.3689">
        <ele>499.06</ele>
        <time>2019-05-27T12:58:00Z</time>
      </trkpt>
      <trkpt lat="44.43393" lon="5.36823">
        <ele>496.66</ele>
        <time>2019-05-27T12:58:30Z</time>
      </trkpt>
      <trkpt lat="44.43243" lon="5.36739">
        <ele>495.7</ele>
        <time>2019-05-27T12:59:00Z</time>
      </trkpt>
      <trkpt lat="44.43124" lon="5.36648">
        <ele>498.1</ele>
        <time>2019-05-27T12:59:30Z</time>
      </trkpt>
      <trkpt lat="44.43034" lon="5.36585">
        <ele>502.43</ele>
        <time>2019-05-27T13:00:00Z</time>
      </trkpt>
      <trkpt lat="44.42904" lon="5.36536">
        <ele>499.54</ele>
        <time>2019-05-27T13:00:30Z</time>
      </trkpt>
      <trkpt lat="44.42651" lon="5.36535">
        <ele>490.41</ele>
        <time>2019-05-27T13:01:00Z</time>
      </trkpt>
      <trkpt lat="44.42423" lon="5.36441">
        <ele>485.12</ele>
        <time>2019-05-27T13:01:30Z</time>
      </trkpt>
      <trkpt lat="44.42217" lon="5.36275">
        <ele>480.32</ele>
        <time>2019-05-27T13:02:00Z</time>
      </trkpt>
      <trkpt lat="44.42096" lon="5.35972">
        <ele>473.59</ele>
        <time>2019-05-27T13:02:30Z</time>
      </trkpt>
      <trkpt lat="44.41904" lon="5.35841">
        <ele>470.7</ele>
        <time>2019-05-27T13:03:00Z</time>
      </trkpt>
      <trkpt lat="44.4171" lon="5.35736">
        <ele>468.3</ele>
        <time>2019-05-27T13:03:30Z</time>
      </trkpt>
      <trkpt lat="44.41525" lon="5.35636">
        <ele>466.38</ele>
        <time>2019-05-27T13:04:00Z</time>
      </trkpt>
      <trkpt lat="44.41458" lon="5.35627">
        <ele>464.93</ele>
        <time>2019-05-27T13:04:30Z</time>
      </trkpt>
      <trkpt lat="44.41456" lon="5.35626">
        <ele>464.45</ele>
        <time>2019-05-27T13:05:00Z</time>
      </trkpt>
      <trkpt lat="44.41456" lon="5.35628">
        <ele>464.45</ele>
        <time>2019-05-27T13:05:30Z</time>
      </trkpt>
      <trkpt lat="44.41461" lon="5.35628">
        <ele>463.97</ele>
        <time>2019-05-27T13:06:00Z</time>
      </trkpt>
      <trkpt lat="44.41463" lon="5.3563">
        <ele>463.49</ele>
        <time>2019-05-27T13:06:30Z</time>
      </trkpt>
    </trkseg>
  </trk>
</gpx>